Observation data for Lesley on 05/15/2018      Previous  Date  Next       Current Mesonet Observations  Soil Data  Daily Summary Page  Observations in Plain Language
KLE1 150500Z 03000KT 19/14 A299 RMK A01 T01870141  RH  075%=      5-min Rain = 0
KLE1 150501Z 00000KT 19/14 A299 RMK A01 T01870141  RH  075%=      5-min Rain = 0
KLE1 150502Z 00000KT 19/14 A299 RMK A01 T01870140  RH  074%=      5-min Rain = 0
KLE1 150503Z 26001KT 19/14 A2991 RMK A01 T01870140  RH  074%=      5-min Rain = 0
KLE1 150504Z 26002KT 19/14 A2991 RMK A01 T01870142  RH  075%=      5-min Rain = 0
KLE1 150505Z 26003KT 19/14 A2991 RMK A01 T01850144  RH  077%=      5-min Rain = 0
KLE1 150506Z 26004KT 18/15 A2991 RMK A01 T01820147  RH  080%=      5-min Rain = 0
KLE1 150507Z 26004KT 18/15 A2991 RMK A01 T01790149  RH  083%=      5-min Rain = 0
KLE1 150508Z 26005KT 18/15 A2991 RMK A01 T01760151  RH  085%=      5-min Rain = 0
KLE1 150509Z 26005KT 17/15 A2991 RMK A01 T01740152  RH  086%=      5-min Rain = 0
KLE1 150510Z 27004KT 17/15 A2991 RMK A01 T01730153  RH  088%=      5-min Rain = 0
KLE1 150511Z 27003KT 17/15 A2991 RMK A01 T01720153  RH  089%=      5-min Rain = 0
KLE1 150512Z 28002KT 17/15 A2991 RMK A01 T01710153  RH  089%=      5-min Rain = 0
KLE1 150513Z 29002KT 17/15 A299 RMK A01 T01710153  RH  089%=      5-min Rain = 0
KLE1 150514Z 30001KT 17/15 A299 RMK A01 T01710152  RH  088%=      5-min Rain = 0
KLE1 150515Z 30001KT 17/15 A299 RMK A01 T01720150  RH  087%=      5-min Rain = 0
KLE1 150516Z 30001KT 17/15 A299 RMK A01 T01730150  RH  086%=      5-min Rain = 0
KLE1 150517Z 30000KT 17/15 A299 RMK A01 T01740149  RH  085%=      5-min Rain = 0
KLE1 150518Z 00000KT 18/15 A299 RMK A01 T01750149  RH  085%=      5-min Rain = 0
KLE1 150519Z 00000KT 18/15 A299 RMK A01 T01750149  RH  085%=      5-min Rain = 0
KLE1 150520Z 18000KT 18/15 A299 RMK A01 T01750149  RH  084%=      5-min Rain = 0
KLE1 150521Z 18001KT 18/15 A299 RMK A01 T01750148  RH  084%=      5-min Rain = 0
KLE1 150522Z 20002KT 18/15 A299 RMK A01 T01770147  RH  083%=      5-min Rain = 0
KLE1 150523Z 20003KT 18/15 A299 RMK A01 T01780147  RH  082%=      5-min Rain = 0
KLE1 150524Z 20003KT 18/15 A299 RMK A01 T01790147  RH  082%=      5-min Rain = 0
KLE1 150525Z 19003KT 18/15 A299 RMK A01 T01800148  RH  082%=      5-min Rain = 0
KLE1 150526Z 18002KT 18/15 A299 RMK A01 T01800147  RH  081%=      5-min Rain = 0
KLE1 150527Z 17002KT 18/15 A299 RMK A01 T01800146  RH  081%=      5-min Rain = 0
KLE1 150528Z 17002KT 18/15 A299 RMK A01 T01800145  RH  080%=      5-min Rain = 0
KLE1 150529Z 16002KT 18/14 A299 RMK A01 T01810144  RH  079%=      5-min Rain = 0
KLE1 150530Z 15002KT 18/14 A299 RMK A01 T01820144  RH  079%=      5-min Rain = 0
KLE1 150531Z 14003KT 18/15 A299 RMK A01 T01820145  RH  079%=      5-min Rain = 0
KLE1 150532Z 13003KT 18/15 A299 RMK A01 T01820145  RH  079%=      5-min Rain = 0
KLE1 150533Z 13003KT 18/14 A299 RMK A01 T01820144  RH  078%=      5-min Rain = 0
KLE1 150534Z 14002KT 18/14 A299 RMK A01 T01830143  RH  077%=      5-min Rain = 0
KLE1 150535Z 13002KT 18/14 A299 RMK A01 T01840143  RH  077%=      5-min Rain = 0
KLE1 150536Z 13003KT 18/14 A299 RMK A01 T01840143  RH  077%=      5-min Rain = 0
KLE1 150537Z 13003KT 19/14 A2991 RMK A01 T01850142  RH  076%=      5-min Rain = 0
KLE1 150538Z 13003KT 19/14 A2991 RMK A01 T01850142  RH  076%=      5-min Rain = 0
KLE1 150539Z 12003KT 19/14 A2991 RMK A01 T01860142  RH  076%=      5-min Rain = 0
KLE1 150540Z 13003KT 19/14 A2991 RMK A01 T01860142  RH  076%=      5-min Rain = 0
KLE1 150541Z 14003KT 19/14 A2991 RMK A01 T01860142  RH  075%=      5-min Rain = 0
KLE1 150542Z 14003KT 19/14 A2991 RMK A01 T01870142  RH  075%=      5-min Rain = 0
KLE1 150543Z 15004KT 19/14 A2991 RMK A01 T01870142  RH  075%=      5-min Rain = 0
KLE1 150544Z 15004KT 19/14 A2991 RMK A01 T01870143  RH  075%=      5-min Rain = 0
KLE1 150545Z 16004KT 19/14 A2991 RMK A01 T01860143  RH  076%=      5-min Rain = 0
KLE1 150546Z 15003KT 19/14 A2991 RMK A01 T01850143  RH  077%=      5-min Rain = 0
KLE1 150547Z 14003KT 18/14 A2991 RMK A01 T01840143  RH  077%=      5-min Rain = 0
KLE1 150548Z 13004KT 18/14 A2991 RMK A01 T01830143  RH  078%=      5-min Rain = 0
KLE1 150549Z 11005KT 18/14 A2991 RMK A01 T01830143  RH  078%=      5-min Rain = 0
KLE1 150550Z 10005KT 18/15 A2991 RMK A01 T01820146  RH  080%=      5-min Rain = 0
KLE1 150551Z 10005KT 18/15 A2991 RMK A01 T01780151  RH  084%=      5-min Rain = 0
KLE1 150552Z 09005KT 17/15 A2991 RMK A01 T01730152  RH  087%=      5-min Rain = 0
KLE1 150553Z 09005KT 17/15 A2991 RMK A01 T01700152  RH  089%=      5-min Rain = 0
KLE1 150554Z 09005KT 17/15 A2992 RMK A01 T01690152  RH  090%=      5-min Rain = 0
KLE1 150555Z 09006KT 17/15 A2991 RMK A01 T01680152  RH  091%=      5-min Rain = 0
KLE1 150556Z 08006KT 17/15 A2991 RMK A01 T01670152  RH  091%=      5-min Rain = 0
KLE1 150557Z 08006KT 17/15 A2992 RMK A01 T01670153  RH  091%=      5-min Rain = 0
KLE1 150558Z 08007KT 17/15 A2992 RMK A01 T01660152  RH  091%=      5-min Rain = 0
KLE1 150559Z 09007KT 17/15 A2992 RMK A01 T01660152  RH  091%=      5-min Rain = 0
KLE1 150600Z 09007KT 17/15 A2992 RMK A01 T01660152  RH  091%=      5-min Rain = 0
KLE1 150601Z 09006KT 17/15 A2992 RMK A01 T01670152  RH  091%=      5-min Rain = 0
KLE1 150602Z 08006KT 17/15 A2992 RMK A01 T01670152  RH  091%=      5-min Rain = 0
KLE1 150603Z 08006KT 17/15 A2992 RMK A01 T01670152  RH  091%=      5-min Rain = 0
KLE1 150604Z 07006KT 17/15 A2992 RMK A01 T01670151  RH  090%=      5-min Rain = 0
KLE1 150605Z 08007KT 17/15 A2992 RMK A01 T01670149  RH  089%=      5-min Rain = 0
KLE1 150606Z 08008KT 17/15 A2992 RMK A01 T01680147  RH  088%=      5-min Rain = 0
KLE1 150607Z 08008KT 17/15 A2992 RMK A01 T01680147  RH  087%=      5-min Rain = 0
KLE1 150608Z 08008KT 17/15 A2992 RMK A01 T01690146  RH  086%=      5-min Rain = 0
KLE1 150609Z 07009KT 17/15 A2992 RMK A01 T01690145  RH  086%=      5-min Rain = 0
KLE1 150610Z 08009KT 17/14 A2992 RMK A01 T01700144  RH  084%=      5-min Rain = 0
KLE1 150611Z 08008KT 17/14 A2993 RMK A01 T01710144  RH  084%=      5-min Rain = 0
KLE1 150612Z 09009KT 17/14 A2993 RMK A01 T01710144  RH  084%=      5-min Rain = 0
KLE1 150613Z 09009KT 17/14 A2993 RMK A01 T01720144  RH  084%=      5-min Rain = 0
KLE1 150614Z 08010KT 17/14 A2993 RMK A01 T01720144  RH  084%=      5-min Rain = 0
KLE1 150615Z 08010KT 17/14 A2993 RMK A01 T01730144  RH  084%=      5-min Rain = 0
KLE1 150616Z 08009KT 17/15 A2993 RMK A01 T01730145  RH  084%=      5-min Rain = 0
KLE1 150617Z 09008KT 17/15 A2993 RMK A01 T01720145  RH  084%=      5-min Rain = 0
KLE1 150618Z 09009KT 17/15 A2993 RMK A01 T01730145  RH  084%=      5-min Rain = 0
KLE1 150619Z 09009KT 17/15 A2993 RMK A01 T01730145  RH  084%=      5-min Rain = 0
KLE1 150620Z 09009KT 17/15 A2993 RMK A01 T01730146  RH  084%=      5-min Rain = 0
KLE1 150925Z 02007KT 16/15 A299 RMK A01 T01620150  RH  092%=      5-min Rain = 0
KLE1 150926Z 02007KT 16/15 A299 RMK A01 T01630150  RH  092%=      5-min Rain = 0
KLE1 150927Z 02006KT 16/15 A299 RMK A01 T01630150  RH  092%=      5-min Rain = 0
KLE1 150928Z 02006KT 16/15 A299 RMK A01 T01630149  RH  091%=      5-min Rain = 0
KLE1 150929Z 02006KT 16/15 A299 RMK A01 T01630149  RH  091%=      5-min Rain = 0
KLE1 150930Z 02006KT 16/15 A299 RMK A01 T01630149  RH  091%=      5-min Rain = 0
KLE1 150931Z 02007KT 16/15 A299 RMK A01 T01630148  RH  091%=      5-min Rain = 0
KLE1 150932Z 02007KT 16/15 A299 RMK A01 T01620148  RH  091%=      5-min Rain = 0
KLE1 150933Z 02006KT 16/15 A299 RMK A01 T01620148  RH  091%=      5-min Rain = 0
KLE1 150934Z 03006KT 16/15 A299 RMK A01 T01630148  RH  091%=      5-min Rain = 0
KLE1 150935Z 03006KT 16/15 A299 RMK A01 T01620147  RH  091%=      5-min Rain = 0
KLE1 150936Z 03006KT 16/15 A299 RMK A01 T01630147  RH  091%=      5-min Rain = 0
KLE1 150937Z 03006KT 16/15 A2989 RMK A01 T01630147  RH  090%=      5-min Rain = 0
KLE1 150938Z 04006KT 16/15 A2989 RMK A01 T01620147  RH  090%=      5-min Rain = 0
KLE1 150939Z 04006KT 16/15 A2989 RMK A01 T01630147  RH  090%=      5-min Rain = 0
KLE1 150940Z 05006KT 16/15 A2989 RMK A01 T01630147  RH  090%=      5-min Rain = 0
KLE1 150941Z 05006KT 16/15 A2989 RMK A01 T01630147  RH  090%=      5-min Rain = 0
KLE1 150942Z 05006KT 16/15 A299 RMK A01 T01630147  RH  090%=      5-min Rain = 0
KLE1 150943Z 05006KT 16/15 A299 RMK A01 T01630147  RH  090%=      5-min Rain = 0
KLE1 150944Z 04006KT 16/15 A299 RMK A01 T01630147  RH  090%=      5-min Rain = 0
KLE1 150945Z 04006KT 16/15 A299 RMK A01 T01620147  RH  090%=      5-min Rain = 0
KLE1 150946Z 04006KT 16/15 A2989 RMK A01 T01630147  RH  091%=      5-min Rain = 0
KLE1 150947Z 04006KT 16/15 A2989 RMK A01 T01620147  RH  090%=      5-min Rain = 0
KLE1 150948Z 05006KT 16/15 A2989 RMK A01 T01620146  RH  090%=      5-min Rain = 0
KLE1 150949Z 05006KT 16/15 A2989 RMK A01 T01620146  RH  090%=      5-min Rain = 0
KLE1 150950Z 05006KT 16/15 A2989 RMK A01 T01620146  RH  090%=      5-min Rain = 0
KLE1 150951Z 05005KT 16/15 A2989 RMK A01 T01630146  RH  090%=      5-min Rain = 0
KLE1 150952Z 05005KT 16/15 A2989 RMK A01 T01620146  RH  090%=      5-min Rain = 0
KLE1 150953Z 05005KT 16/15 A2989 RMK A01 T01630146  RH  090%=      5-min Rain = 0
KLE1 150954Z 05005KT 16/15 A2989 RMK A01 T01630146  RH  090%=      5-min Rain = 0
KLE1 150955Z 05004KT 16/15 A2989 RMK A01 T01640146  RH  089%=      5-min Rain = 0
KLE1 150956Z 06004KT 16/15 A2989 RMK A01 T01640146  RH  089%=      5-min Rain = 0
KLE1 150957Z 06004KT 16/15 A2989 RMK A01 T01640146  RH  089%=      5-min Rain = 0
KLE1 150958Z 06004KT 16/15 A2989 RMK A01 T01640146  RH  089%=      5-min Rain = 0
KLE1 150959Z 07005KT 16/15 A2989 RMK A01 T01640146  RH  089%=      5-min Rain = 0
KLE1 151000Z 07005KT 16/15 A2989 RMK A01 T01640146  RH  089%=      5-min Rain = 0
KLE1 151001Z 07005KT 16/15 A2989 RMK A01 T01640146  RH  089%=      5-min Rain = 0
KLE1 151002Z 07004KT 16/15 A2989 RMK A01 T01640146  RH  089%=      5-min Rain = 0
KLE1 151003Z 06005KT 16/15 A2989 RMK A01 T01640146  RH  089%=      5-min Rain = 0
KLE1 151004Z 06005KT 16/15 A2989 RMK A01 T01640146  RH  089%=      5-min Rain = 0
KLE1 151005Z 06005KT 16/15 A2988 RMK A01 T01640146  RH  089%=      5-min Rain = 0
KLE1 151006Z 06005KT 16/15 A2988 RMK A01 T01640146  RH  089%=      5-min Rain = 0
KLE1 151007Z 05004KT 17/15 A2988 RMK A01 T01650146  RH  089%=      5-min Rain = 0
KLE1 151008Z 05004KT 17/15 A2988 RMK A01 T01650146  RH  089%=      5-min Rain = 0
KLE1 151009Z 04004KT 17/15 A2989 RMK A01 T01650146  RH  089%=      5-min Rain = 0
KLE1 151010Z 04004KT 17/15 A2989 RMK A01 T01650146  RH  089%=      5-min Rain = 0
KLE1 151011Z 04004KT 17/15 A2988 RMK A01 T01650146  RH  088%=      5-min Rain = 0
KLE1 151012Z 05004KT 17/15 A2988 RMK A01 T01650146  RH  088%=      5-min Rain = 0
KLE1 151013Z 05004KT 17/15 A2988 RMK A01 T01660146  RH  088%=      5-min Rain = 0
KLE1 151014Z 05004KT 17/15 A2988 RMK A01 T01660145  RH  087%=      5-min Rain = 0
KLE1 151015Z 05004KT 17/15 A2988 RMK A01 T01680146  RH  087%=      5-min Rain = 0
KLE1 151016Z 05004KT 17/15 A2988 RMK A01 T01690146  RH  086%=      5-min Rain = 0
KLE1 151017Z 06004KT 17/15 A2988 RMK A01 T01690146  RH  086%=      5-min Rain = 0
KLE1 151018Z 06003KT 17/15 A2988 RMK A01 T01690146  RH  086%=      5-min Rain = 0
KLE1 151019Z 05003KT 17/15 A2988 RMK A01 T01690145  RH  086%=      5-min Rain = 0
KLE1 151020Z 05004KT 17/15 A2988 RMK A01 T01700146  RH  086%=      5-min Rain = 0
KLE1 151021Z 05004KT 17/15 A2988 RMK A01 T01700145  RH  085%=      5-min Rain = 0
KLE1 151022Z 04004KT 17/15 A2988 RMK A01 T01710146  RH  085%=      5-min Rain = 0
KLE1 151023Z 04004KT 17/15 A2988 RMK A01 T01700145  RH  085%=      5-min Rain = 0
KLE1 151024Z 04005KT 17/15 A2988 RMK A01 T01690145  RH  085%=      5-min Rain = 0
KLE1 151025Z 04006KT 17/15 A2988 RMK A01 T01690145  RH  086%=      5-min Rain = 0
KLE1 151026Z 05006KT 17/15 A2988 RMK A01 T01680145  RH  086%=      5-min Rain = 0
KLE1 151027Z 05005KT 17/15 A2989 RMK A01 T01680146  RH  086%=      5-min Rain = 0
KLE1 151028Z 05006KT 17/15 A2989 RMK A01 T01690146  RH  086%=      5-min Rain = 0
KLE1 151029Z 05007KT 17/15 A2989 RMK A01 T01680146  RH  087%=      5-min Rain = 0
KLE1 151030Z 05008KT 17/15 A2989 RMK A01 T01670146  RH  087%=      5-min Rain = 0
KLE1 151031Z 05008KT 17/15 A2989 RMK A01 T01670147  RH  088%=      5-min Rain = 0
KLE1 151032Z 05010KT 17/15 A299 RMK A01 T01660147  RH  089%=      5-min Rain = 0
KLE1 151033Z 05011KT 17/15 A299 RMK A01 T01650148  RH  090%=      5-min Rain = 0
KLE1 151034Z 05012KT 17/15 A299 RMK A01 T01650148  RH  090%=      5-min Rain = 0
KLE1 151035Z 05013KT 17/15 A299 RMK A01 T01660149  RH  090%=      5-min Rain = 0
KLE1 151036Z 05013KT 17/15 A299 RMK A01 T01670149  RH  089%=      5-min Rain = 0
KLE1 151037Z 05015KT 17/15 A299 RMK A01 T01690149  RH  088%=      5-min Rain = 0
KLE1 151038Z 05016KT 17/15 A299 RMK A01 T01710148  RH  086%=      5-min Rain = 0
KLE1 151039Z 04016KT 17/15 A299 RMK A01 T01720148  RH  085%=      5-min Rain = 0
KLE1 151040Z 05014KT 17/15 A299 RMK A01 T01730147  RH  085%=      5-min Rain = 0
KLE1 151041Z 05011KT 17/15 A299 RMK A01 T01730147  RH  085%=      5-min Rain = 0
KLE1 151042Z 04009KT 17/15 A299 RMK A01 T01730147  RH  085%=      5-min Rain = 0
KLE1 151043Z 04007KT 17/15 A299 RMK A01 T01730147  RH  085%=      5-min Rain = 0
KLE1 151044Z 04006KT 17/15 A299 RMK A01 T01720147  RH  085%=      5-min Rain = 0
KLE1 151045Z 03007KT 17/15 A299 RMK A01 T01720147  RH  085%=      5-min Rain = 0
KLE1 151046Z 02007KT 17/15 A299 RMK A01 T01720147  RH  085%=      5-min Rain = 0
KLE1 151047Z 02005KT 17/15 A299 RMK A01 T01720147  RH  085%=      5-min Rain = 0
KLE1 151048Z 03005KT 17/15 A299 RMK A01 T01720147  RH  085%=      5-min Rain = 0
KLE1 151049Z 04007KT 17/15 A299 RMK A01 T01710147  RH  085%=      5-min Rain = 0
KLE1 151050Z 04008KT 17/15 A299 RMK A01 T01710147  RH  086%=      5-min Rain = 0
KLE1 151051Z 05007KT 17/15 A299 RMK A01 T01710147  RH  086%=      5-min Rain = 0
KLE1 151052Z 07005KT 17/15 A299 RMK A01 T01720148  RH  086%=      5-min Rain = 0
KLE1 151053Z 03004KT 17/15 A299 RMK A01 T01740148  RH  085%=      5-min Rain = 0
KLE1 151054Z 06010KT 18/15 A299 RMK A01 T01750148  RH  085%=      5-min Rain = 0
KLE1 151055Z 06010KT 18/15 A299 RMK A01 T01750150  RH  085%=      5-min Rain = 0
KLE1 151056Z 07010KT 18/15 A299 RMK A01 T01760151  RH  085%=      5-min Rain = 0
KLE1 151057Z 06009KT 18/15 A299 RMK A01 T01770150  RH  084%=      5-min Rain = 0
KLE1 151058Z 05009KT 18/15 A299 RMK A01 T01770150  RH  084%=      5-min Rain = 0
KLE1 151059Z 04007KT 18/15 A299 RMK A01 T01760150  RH  084%=      5-min Rain = 0
KLE1 151100Z 05006KT 18/15 A299 RMK A01 T01760149  RH  085%=      5-min Rain = 0
KLE1 151101Z 05006KT 18/15 A299 RMK A01 T01750149  RH  085%=      5-min Rain = 0
KLE1 151102Z 04006KT 18/15 A299 RMK A01 T01760149  RH  084%=      5-min Rain = 0
KLE1 151103Z 04007KT 18/15 A299 RMK A01 T01760149  RH  084%=      5-min Rain = 0
KLE1 151104Z 04008KT 18/15 A299 RMK A01 T01760149  RH  084%=      5-min Rain = 0
KLE1 151105Z 05008KT 18/15 A2991 RMK A01 T01760150  RH  085%=      5-min Rain = 0
KLE1 151106Z 06006KT 18/15 A2991 RMK A01 T01750150  RH  085%=      5-min Rain = 0
KLE1 151107Z 06007KT 17/15 A2991 RMK A01 T01740150  RH  086%=      5-min Rain = 0
KLE1 151108Z 05008KT 17/15 A2991 RMK A01 T01740150  RH  086%=      5-min Rain = 0
KLE1 151109Z 04010KT 17/15 A2992 RMK A01 T01730151  RH  087%=      5-min Rain = 0
KLE1 151110Z 04011KT 17/15 A2992 RMK A01 T01730150  RH  087%=      5-min Rain = 0
KLE1 151111Z 04011KT 17/15 A2992 RMK A01 T01730150  RH  086%=      5-min Rain = 0
KLE1 151112Z 04012KT 17/15 A2992 RMK A01 T01730150  RH  086%=      5-min Rain = 0
KLE1 151113Z 05013KT 18/15 A2992 RMK A01 T01750150  RH  086%=      5-min Rain = 0
KLE1 151114Z 04013KT 18/15 A2992 RMK A01 T01760151  RH  085%=      5-min Rain = 0
KLE1 151115Z 05011KT 18/15 A2992 RMK A01 T01760150  RH  085%=      5-min Rain = 0
KLE1 151116Z 04012KT 18/15 A2992 RMK A01 T01760150  RH  085%=      5-min Rain = 0
KLE1 151117Z 04012KT 18/15 A2992 RMK A01 T01760150  RH  085%=      5-min Rain = 0
KLE1 151118Z 04011KT 18/15 A2992 RMK A01 T01760150  RH  085%=      5-min Rain = 0
KLE1 151119Z 04010KT 18/15 A2992 RMK A01 T01770150  RH  084%=      5-min Rain = 0
KLE1 151120Z 05009KT 18/15 A2992 RMK A01 T01770150  RH  085%=      5-min Rain = 0
KLE1 151121Z 05008KT 18/15 A2992 RMK A01 T01760150  RH  085%=      5-min Rain = 0
KLE1 151122Z 05007KT 18/15 A2992 RMK A01 T01760150  RH  085%=      5-min Rain = 0
KLE1 151123Z 05008KT 18/15 A2992 RMK A01 T01760151  RH  085%=      5-min Rain = 0
KLE1 151124Z 04009KT 18/15 A2992 RMK A01 T01760151  RH  085%=      5-min Rain = 0
KLE1 151125Z 04008KT 18/15 A2993 RMK A01 T01750150  RH  085%=      5-min Rain = 0
KLE1 151126Z 05008KT 18/15 A2993 RMK A01 T01750150  RH  085%=      5-min Rain = 0
KLE1 151127Z 04009KT 18/15 A2993 RMK A01 T01750150  RH  085%=      5-min Rain = 0
KLE1 151128Z 04008KT 18/15 A2993 RMK A01 T01750151  RH  085%=      5-min Rain = 0
KLE1 151129Z 04009KT 18/15 A2993 RMK A01 T01750151  RH  085%=      5-min Rain = 0
KLE1 151130Z 04009KT 18/15 A2993 RMK A01 T01750151  RH  085%=      5-min Rain = 0
KLE1 151131Z 04009KT 18/15 A2993 RMK A01 T01750151  RH  085%=      5-min Rain = 0
KLE1 151132Z 04009KT 18/15 A2993 RMK A01 T01750150  RH  085%=      5-min Rain = 0
KLE1 151133Z 04010KT 18/15 A2993 RMK A01 T01750150  RH  085%=      5-min Rain = 0
KLE1 151134Z 04010KT 18/15 A2993 RMK A01 T01750150  RH  085%=      5-min Rain = 0
KLE1 151135Z 04010KT 18/15 A2993 RMK A01 T01750150  RH  085%=      5-min Rain = 0
KLE1 151136Z 04011KT 18/15 A2993 RMK A01 T01750150  RH  085%=      5-min Rain = 0
KLE1 151137Z 04010KT 18/15 A2993 RMK A01 T01750150  RH  085%=      5-min Rain = 0
KLE1 151138Z 04009KT 18/15 A2993 RMK A01 T01750150  RH  085%=      5-min Rain = 0
KLE1 151139Z 04009KT 18/15 A2993 RMK A01 T01750150  RH  085%=      5-min Rain = 0
KLE1 151140Z 04009KT 18/15 A2994 RMK A01 T01750150  RH  085%=      5-min Rain = 0
KLE1 151141Z 03010KT 17/15 A2994 RMK A01 T01740150  RH  085%=      5-min Rain = 0
KLE1 151142Z 03011KT 17/15 A2994 RMK A01 T01740149  RH  086%=      5-min Rain = 0
KLE1 151143Z 03010KT 17/15 A2994 RMK A01 T01740150  RH  085%=      5-min Rain = 0
KLE1 151144Z 04011KT 17/15 A2994 RMK A01 T01740150  RH  086%=      5-min Rain = 0
KLE1 151145Z 04011KT 17/15 A2994 RMK A01 T01740149  RH  085%=      5-min Rain = 0
KLE1 151146Z 04011KT 17/15 A2994 RMK A01 T01740149  RH  085%=      5-min Rain = 0
KLE1 151147Z 04011KT 17/15 A2994 RMK A01 T01740148  RH  085%=      5-min Rain = 0
KLE1 151148Z 04010KT 17/15 A2994 RMK A01 T01740148  RH  085%=      5-min Rain = 0
KLE1 151149Z 04008KT 17/15 A2994 RMK A01 T01740148  RH  085%=      5-min Rain = 0
KLE1 151150Z 04008KT 17/15 A2994 RMK A01 T01740148  RH  085%=      5-min Rain = 0
KLE1 151151Z 05007KT 17/15 A2994 RMK A01 T01740148  RH  085%=      5-min Rain = 0
KLE1 151152Z 05007KT 17/15 A2994 RMK A01 T01740148  RH  085%=      5-min Rain = 0
KLE1 151153Z 05007KT 17/15 A2994 RMK A01 T01740148  RH  085%=      5-min Rain = 0
KLE1 151154Z 04008KT 17/15 A2994 RMK A01 T01740148  RH  085%=      5-min Rain = 0
KLE1 151155Z 04008KT 17/15 A2995 RMK A01 T01740148  RH  085%=      5-min Rain = 0
KLE1 151156Z 05008KT 17/15 A2995 RMK A01 T01740148  RH  085%=      5-min Rain = 0
KLE1 151157Z 04009KT 17/15 A2995 RMK A01 T01740148  RH  085%=      5-min Rain = 0
KLE1 151158Z 04008KT 17/15 A2995 RMK A01 T01740148  RH  085%=      5-min Rain = 0
KLE1 151159Z 04010KT 17/15 A2995 RMK A01 T01730149  RH  085%=      5-min Rain = 0
KLE1 151200Z 05011KT 17/15 A2995 RMK A01 T01730148  RH  085%=      5-min Rain = 0
KLE1 151201Z 04011KT 17/15 A2995 RMK A01 T01730148  RH  085%=      5-min Rain = 0
KLE1 151202Z 04011KT 17/15 A2995 RMK A01 T01730147  RH  085%=      5-min Rain = 0
KLE1 151203Z 04011KT 17/15 A2995 RMK A01 T01730147  RH  085%=      5-min Rain = 0
KLE1 151204Z 04012KT 17/15 A2995 RMK A01 T01740147  RH  084%=      5-min Rain = 0
KLE1 151205Z 03011KT 17/15 A2995 RMK A01 T01740147  RH  084%=      5-min Rain = 0
KLE1 151206Z 04009KT 17/15 A2996 RMK A01 T01740147  RH  084%=      5-min Rain = 0
KLE1 151207Z 03009KT 17/15 A2996 RMK A01 T01740147  RH  084%=      5-min Rain = 0
KLE1 151208Z 04009KT 18/15 A2996 RMK A01 T01750147  RH  084%=      5-min Rain = 0
KLE1 151209Z 04010KT 18/15 A2995 RMK A01 T01750147  RH  084%=      5-min Rain = 0
KLE1 151210Z 04010KT 18/15 A2995 RMK A01 T01750146  RH  083%=      5-min Rain = 0
KLE1 151211Z 04009KT 18/15 A2995 RMK A01 T01750147  RH  083%=      5-min Rain = 0
KLE1 151212Z 03009KT 18/15 A2996 RMK A01 T01750147  RH  083%=      5-min Rain = 0
KLE1 151213Z 04011KT 18/15 A2996 RMK A01 T01750147  RH  083%=      5-min Rain = 0
KLE1 151214Z 03010KT 18/15 A2996 RMK A01 T01760147  RH  083%=      5-min Rain = 0
KLE1 151215Z 03011KT 18/15 A2996 RMK A01 T01760147  RH  083%=      5-min Rain = 0
KLE1 151216Z 04009KT 18/15 A2996 RMK A01 T01760147  RH  083%=      5-min Rain = 0
KLE1 151217Z 04010KT 18/15 A2996 RMK A01 T01770148  RH  083%=      5-min Rain = 0
KLE1 151218Z 04010KT 18/15 A2996 RMK A01 T01770148  RH  083%=      5-min Rain = 0
KLE1 151219Z 04010KT 18/15 A2996 RMK A01 T01780147  RH  082%=      5-min Rain = 0
KLE1 151220Z 05009KT 18/15 A2996 RMK A01 T01780148  RH  083%=      5-min Rain = 0
KLE1 151221Z 05009KT 18/15 A2996 RMK A01 T01780149  RH  083%=      5-min Rain = 0
KLE1 151222Z 04009KT 18/15 A2996 RMK A01 T01780149  RH  083%=      5-min Rain = 0
KLE1 151223Z 04010KT 18/15 A2996 RMK A01 T01780148  RH  083%=      5-min Rain = 0
KLE1 151224Z 04009KT 18/15 A2996 RMK A01 T01790149  RH  083%=      5-min Rain = 0
KLE1 151225Z 04009KT 18/15 A2996 RMK A01 T01790148  RH  082%=      5-min Rain = 0
KLE1 151226Z 04010KT 18/15 A2997 RMK A01 T01790149  RH  082%=      5-min Rain = 0
KLE1 151227Z 04010KT 18/15 A2997 RMK A01 T01800149  RH  082%=      5-min Rain = 0
KLE1 151228Z 04009KT 18/15 A2997 RMK A01 T01800149  RH  082%=      5-min Rain = 0
KLE1 151229Z 04010KT 18/15 A2997 RMK A01 T01800149  RH  082%=      5-min Rain = 0
KLE1 151230Z 04011KT 18/15 A2997 RMK A01 T01800148  RH  081%=      5-min Rain = 0
KLE1 151231Z 05010KT 18/15 A2997 RMK A01 T01810148  RH  081%=      5-min Rain = 0
KLE1 151232Z 05011KT 18/15 A2997 RMK A01 T01820149  RH  081%=      5-min Rain = 0
KLE1 151233Z 04010KT 18/15 A2997 RMK A01 T01820148  RH  081%=      5-min Rain = 0
KLE1 151234Z 04011KT 18/15 A2997 RMK A01 T01820149  RH  081%=      5-min Rain = 0
KLE1 151235Z 04010KT 18/15 A2997 RMK A01 T01820149  RH  081%=      5-min Rain = 0
KLE1 151236Z 04009KT 18/15 A2997 RMK A01 T01820150  RH  081%=      5-min Rain = 0
KLE1 151237Z 04010KT 18/15 A2997 RMK A01 T01820150  RH  081%=      5-min Rain = 0
KLE1 151238Z 04010KT 18/15 A2997 RMK A01 T01820149  RH  081%=      5-min Rain = 0
KLE1 151239Z 04010KT 18/15 A2997 RMK A01 T01830149  RH  081%=      5-min Rain = 0
KLE1 151240Z 04008KT 18/15 A2997 RMK A01 T01830149  RH  081%=      5-min Rain = 0
KLE1 151241Z 05009KT 18/15 A2997 RMK A01 T01830150  RH  081%=      5-min Rain = 0
KLE1 151242Z 05008KT 18/15 A2997 RMK A01 T01830150  RH  081%=      5-min Rain = 0
KLE1 151243Z 05010KT 18/15 A2998 RMK A01 T01840151  RH  081%=      5-min Rain = 0
KLE1 151244Z 05008KT 19/15 A2998 RMK A01 T01850151  RH  081%=      5-min Rain = 0
KLE1 151245Z 04009KT 19/15 A2998 RMK A01 T01850152  RH  081%=      5-min Rain = 0
KLE1 151246Z 04010KT 19/15 A2998 RMK A01 T01860152  RH  081%=      5-min Rain = 0
KLE1 151247Z 04010KT 19/15 A2998 RMK A01 T01860152  RH  081%=      5-min Rain = 0
KLE1 151248Z 03011KT 19/15 A2999 RMK A01 T01860153  RH  081%=      5-min Rain = 0
KLE1 151249Z 03012KT 19/15 A2999 RMK A01 T01870153  RH  081%=      5-min Rain = 0
KLE1 151250Z 03010KT 19/15 A2999 RMK A01 T01870153  RH  081%=      5-min Rain = 0
KLE1 151251Z 03011KT 19/15 A2999 RMK A01 T01870154  RH  081%=      5-min Rain = 0
KLE1 151252Z 04011KT 19/15 A2999 RMK A01 T01880154  RH  080%=      5-min Rain = 0
KLE1 151253Z 04009KT 19/15 A2999 RMK A01 T01880154  RH  080%=      5-min Rain = 0
KLE1 151254Z 04011KT 19/16 A2999 RMK A01 T01890155  RH  081%=      5-min Rain = 0
KLE1 151255Z 04011KT 19/15 A2999 RMK A01 T01890154  RH  080%=      5-min Rain = 0
KLE1 151256Z 04010KT 19/15 A2999 RMK A01 T01890154  RH  080%=      5-min Rain = 0
KLE1 151257Z 05011KT 19/15 A2999 RMK A01 T01890153  RH  080%=      5-min Rain = 0
KLE1 151258Z 05008KT 19/15 A2999 RMK A01 T01880154  RH  080%=      5-min Rain = 0
KLE1 151259Z 04010KT 19/16 A2999 RMK A01 T01880155  RH  081%=      5-min Rain = 0
KLE1 151300Z 05010KT 19/16 A2999 RMK A01 T01870155  RH  081%=      5-min Rain = 0
KLE1 151301Z 04010KT 19/16 A2999 RMK A01 T01880156  RH  082%=      5-min Rain = 0
KLE1 151302Z 04011KT 19/16 A30 RMK A01 T01880157  RH  082%=      5-min Rain = 0
KLE1 151303Z 04011KT 19/16 A30 RMK A01 T01880157  RH  082%=      5-min Rain = 0
KLE1 151304Z 04011KT 19/16 A30 RMK A01 T01890156  RH  082%=      5-min Rain = 0
KLE1 151305Z 04012KT 19/16 A30 RMK A01 T01890156  RH  081%=      5-min Rain = 0
KLE1 151306Z 04009KT 19/16 A30 RMK A01 T01890157  RH  082%=      5-min Rain = 0
KLE1 151307Z 05011KT 19/16 A30 RMK A01 T01890157  RH  082%=      5-min Rain = 0
KLE1 151308Z 04011KT 19/16 A30 RMK A01 T01880156  RH  081%=      5-min Rain = 0
KLE1 151309Z 05010KT 19/16 A30 RMK A01 T01880156  RH  082%=      5-min Rain = 0
KLE1 151310Z 05010KT 19/16 A30 RMK A01 T01880157  RH  082%=      5-min Rain = 0
KLE1 151311Z 05011KT 19/16 A30 RMK A01 T01890158  RH  082%=      5-min Rain = 0
KLE1 151312Z 06010KT 19/16 A30 RMK A01 T01900157  RH  081%=      5-min Rain = 0
KLE1 151313Z 05008KT 19/16 A3001 RMK A01 T01900158  RH  082%=      5-min Rain = 0
KLE1 151314Z 05009KT 19/16 A3001 RMK A01 T01900159  RH  082%=      5-min Rain = 0
KLE1 151315Z 06010KT 19/16 A3001 RMK A01 T01890158  RH  082%=      5-min Rain = 0
KLE1 151316Z 06009KT 19/16 A3001 RMK A01 T01900159  RH  082%=      5-min Rain = 0
KLE1 151317Z 06010KT 19/16 A3001 RMK A01 T01890159  RH  083%=      5-min Rain = 0
KLE1 151318Z 06012KT 19/16 A3001 RMK A01 T01890158  RH  082%=      5-min Rain = 0
KLE1 151319Z 06010KT 19/16 A3001 RMK A01 T01890159  RH  083%=      5-min Rain = 0
KLE1 151320Z 06011KT 19/16 A3001 RMK A01 T01890160  RH  083%=      5-min Rain = 0
KLE1 151321Z 05010KT 19/16 A3001 RMK A01 T01890160  RH  083%=      5-min Rain = 0
KLE1 151322Z 05010KT 19/16 A3001 RMK A01 T01890159  RH  083%=      5-min Rain = 0
KLE1 151323Z 05011KT 19/16 A3002 RMK A01 T01890160  RH  083%=      5-min Rain = 0
KLE1 151324Z 06011KT 19/16 A3002 RMK A01 T01880159  RH  083%=      5-min Rain = 0
KLE1 151325Z 05011KT 19/16 A3002 RMK A01 T01880159  RH  083%=      5-min Rain = 0
KLE1 151326Z 06011KT 19/16 A3002 RMK A01 T01870159  RH  083%=      5-min Rain = 0
KLE1 151327Z 06010KT 19/16 A3002 RMK A01 T01880160  RH  084%=      5-min Rain = 0
KLE1 151328Z 06009KT 19/16 A3002 RMK A01 T01880161  RH  085%=      5-min Rain = 0
KLE1 151329Z 06010KT 19/16 A3001 RMK A01 T01880162  RH  085%=      5-min Rain = 0
KLE1 151330Z 07011KT 19/16 A3001 RMK A01 T01870161  RH  084%=      5-min Rain = 0
KLE1 151331Z 05009KT 19/16 A3001 RMK A01 T01880161  RH  084%=      5-min Rain = 0
KLE1 151332Z 06009KT 19/16 A3001 RMK A01 T01870161  RH  085%=      5-min Rain = 0
KLE1 151333Z 06011KT 19/16 A3001 RMK A01 T01870161  RH  084%=      5-min Rain = 0
KLE1 151334Z 05010KT 19/16 A3001 RMK A01 T01870161  RH  084%=      5-min Rain = 0
KLE1 151335Z 06009KT 19/16 A3001 RMK A01 T01870162  RH  085%=      5-min Rain = 0
KLE1 151336Z 05008KT 19/16 A3001 RMK A01 T01870162  RH  085%=      5-min Rain = 0
KLE1 151337Z 05009KT 19/16 A3001 RMK A01 T01870162  RH  085%=      5-min Rain = 0
KLE1 151338Z 05009KT 19/16 A3001 RMK A01 T01880162  RH  085%=      5-min Rain = 0
KLE1 151339Z 04009KT 19/16 A3002 RMK A01 T01880163  RH  085%=      5-min Rain = 0
KLE1 151340Z 03009KT 19/16 A3002 RMK A01 T01880163  RH  085%=      5-min Rain = 0
KLE1 151341Z 04009KT 19/16 A3002 RMK A01 T01880163  RH  085%=      5-min Rain = 0
KLE1 151342Z 04009KT 19/16 A3002 RMK A01 T01890163  RH  085%=      5-min Rain = 0
KLE1 151343Z 04010KT 19/16 A3002 RMK A01 T01890162  RH  085%=      5-min Rain = 0
KLE1 151344Z 04009KT 19/16 A3002 RMK A01 T01890163  RH  085%=      5-min Rain = 0
KLE1 151345Z 04010KT 19/16 A3002 RMK A01 T01890163  RH  085%=      5-min Rain = 0
KLE1 151346Z 04010KT 19/16 A3001 RMK A01 T01900163  RH  085%=      5-min Rain = 0
KLE1 151347Z 05010KT 19/16 A3001 RMK A01 T01900163  RH  085%=      5-min Rain = 0
KLE1 151348Z 04010KT 19/16 A3001 RMK A01 T01900164  RH  085%=      5-min Rain = 0
KLE1 151349Z 05011KT 19/16 A3001 RMK A01 T01900164  RH  084%=      5-min Rain = 0
KLE1 151350Z 05010KT 19/16 A3001 RMK A01 T01910163  RH  084%=      5-min Rain = 0
KLE1 151351Z 05009KT 19/16 A3001 RMK A01 T01910164  RH  084%=      5-min Rain = 0
KLE1 151352Z 05011KT 19/17 A3001 RMK A01 T01920166  RH  085%=      5-min Rain = 0
KLE1 151353Z 05010KT 19/17 A3001 RMK A01 T01930165  RH  084%=      5-min Rain = 0
KLE1 151354Z 05012KT 19/17 A3001 RMK A01 T01930165  RH  084%=      5-min Rain = 0
KLE1 151355Z 05009KT 19/17 A3001 RMK A01 T01930165  RH  084%=      5-min Rain = 0
KLE1 151356Z 06009KT 19/17 A3001 RMK A01 T01930165  RH  084%=      5-min Rain = 0
KLE1 151357Z 06008KT 19/16 A3001 RMK A01 T01930164  RH  083%=      5-min Rain = 0
KLE1 151358Z 06008KT 19/17 A3001 RMK A01 T01920165  RH  084%=      5-min Rain = 0
KLE1 151359Z 06009KT 19/17 A3001 RMK A01 T01930166  RH  085%=      5-min Rain = 0
KLE1 151400Z 05008KT 19/17 A3002 RMK A01 T01930166  RH  084%=      5-min Rain = 0
KLE1 151401Z 05008KT 19/17 A3002 RMK A01 T01940166  RH  084%=      5-min Rain = 0
KLE1 151402Z 05008KT 19/17 A3002 RMK A01 T01940168  RH  085%=      5-min Rain = 0
KLE1 151403Z 05008KT 20/17 A3002 RMK A01 T01950168  RH  084%=      5-min Rain = 0
KLE1 151404Z 05009KT 20/17 A3002 RMK A01 T01960167  RH  084%=      5-min Rain = 0
KLE1 151405Z 05009KT 20/17 A3001 RMK A01 T01960167  RH  083%=      5-min Rain = 0
KLE1 151406Z 05009KT 20/17 A3001 RMK A01 T01950166  RH  083%=      5-min Rain = 0
KLE1 151407Z 06008KT 20/17 A3001 RMK A01 T01950167  RH  084%=      5-min Rain = 0
KLE1 151408Z 06007KT 20/17 A3001 RMK A01 T01950167  RH  084%=      5-min Rain = 0
KLE1 151409Z 07008KT 20/17 A3001 RMK A01 T01960168  RH  084%=      5-min Rain = 0
KLE1 151410Z 06006KT 20/17 A3001 RMK A01 T01970169  RH  084%=      5-min Rain = 0
KLE1 151411Z 06009KT 20/17 A3001 RMK A01 T01980170  RH  084%=      5-min Rain = 0
KLE1 151412Z 06008KT 20/17 A3001 RMK A01 T02000171  RH  083%=      5-min Rain = 0
KLE1 151413Z 06009KT 20/17 A3001 RMK A01 T02010170  RH  082%=      5-min Rain = 0
KLE1 151414Z 07010KT 20/17 A3001 RMK A01 T02010169  RH  082%=      5-min Rain = 0
KLE1 151415Z 07009KT 20/17 A3001 RMK A01 T02000169  RH  082%=      5-min Rain = 0
KLE1 151416Z 07008KT 20/17 A3001 RMK A01 T01990169  RH  082%=      5-min Rain = 0
KLE1 151417Z 06006KT 20/17 A3001 RMK A01 T02000170  RH  083%=      5-min Rain = 0
KLE1 151418Z 06007KT 20/17 A3001 RMK A01 T02010171  RH  083%=      5-min Rain = 0
KLE1 151419Z 07008KT 20/17 A3001 RMK A01 T02020170  RH  082%=      5-min Rain = 0
KLE1 151420Z 07009KT 20/17 A3001 RMK A01 T02010171  RH  083%=      5-min Rain = 0
KLE1 151421Z 07010KT 20/17 A3001 RMK A01 T02020172  RH  083%=      5-min Rain = 0
KLE1 151422Z 07010KT 20/17 A30 RMK A01 T02020171  RH  082%=      5-min Rain = 0
KLE1 151423Z 07009KT 20/17 A3001 RMK A01 T02020171  RH  082%=      5-min Rain = 0
KLE1 151424Z 07009KT 20/17 A3001 RMK A01 T02020171  RH  082%=      5-min Rain = 0
KLE1 151425Z 08009KT 20/17 A3001 RMK A01 T02030172  RH  083%=      5-min Rain = 0
KLE1 151426Z 07007KT 20/17 A3001 RMK A01 T02030171  RH  082%=      5-min Rain = 0
KLE1 151427Z 08007KT 20/17 A3001 RMK A01 T02030174  RH  083%=      5-min Rain = 0
KLE1 151428Z 09009KT 20/17 A3001 RMK A01 T02040174  RH  083%=      5-min Rain = 0
KLE1 151429Z 09008KT 21/17 A3001 RMK A01 T02050173  RH  082%=      5-min Rain = 0
KLE1 151430Z 09007KT 20/17 A3001 RMK A01 T02040171  RH  081%=      5-min Rain = 0
KLE1 151431Z 09007KT 20/17 A3001 RMK A01 T02030172  RH  083%=      5-min Rain = 0
KLE1 151432Z 08008KT 20/17 A3001 RMK A01 T02030174  RH  083%=      5-min Rain = 0
KLE1 151433Z 08008KT 20/17 A3001 RMK A01 T02040173  RH  083%=      5-min Rain = 0
KLE1 151434Z 07008KT 20/17 A3001 RMK A01 T02040174  RH  083%=      5-min Rain = 0
KLE1 151435Z 07008KT 20/17 A3001 RMK A01 T02040174  RH  083%=      5-min Rain = 0
KLE1 151436Z 07007KT 21/17 A3001 RMK A01 T02050173  RH  082%=      5-min Rain = 0
KLE1 151437Z 06009KT 21/17 A3001 RMK A01 T02050174  RH  082%=      5-min Rain = 0
KLE1 151438Z 07008KT 21/18 A3001 RMK A01 T02050175  RH  083%=      5-min Rain = 0
KLE1 151439Z 08008KT 21/18 A3001 RMK A01 T02060176  RH  083%=      5-min Rain = 0
KLE1 151440Z 08009KT 21/18 A3001 RMK A01 T02070176  RH  083%=      5-min Rain = 0
KLE1 151441Z 08008KT 21/18 A3001 RMK A01 T02080177  RH  082%=      5-min Rain = 0
KLE1 151442Z 08007KT 21/17 A3001 RMK A01 T02080174  RH  081%=      5-min Rain = 0
KLE1 151443Z 09007KT 21/18 A3001 RMK A01 T02080176  RH  082%=      5-min Rain = 0
KLE1 151444Z 09008KT 21/18 A3001 RMK A01 T02090175  RH  081%=      5-min Rain = 0
KLE1 151445Z 08008KT 21/18 A3001 RMK A01 T02080176  RH  082%=      5-min Rain = 0
KLE1 151446Z 07008KT 21/18 A3001 RMK A01 T02090178  RH  082%=      5-min Rain = 0
KLE1 151447Z 07008KT 21/18 A3001 RMK A01 T02100177  RH  081%=      5-min Rain = 0
KLE1 151448Z 07008KT 21/18 A3001 RMK A01 T02100176  RH  081%=      5-min Rain = 0
KLE1 151449Z 07007KT 21/18 A3001 RMK A01 T02100176  RH  081%=      5-min Rain = 0
KLE1 151450Z 07007KT 21/18 A3001 RMK A01 T02090176  RH  081%=      5-min Rain = 0
KLE1 151451Z 08007KT 21/18 A3001 RMK A01 T02090175  RH  081%=      5-min Rain = 0
KLE1 151452Z 09008KT 21/18 A3001 RMK A01 T02090175  RH  081%=      5-min Rain = 0
KLE1 151453Z 10008KT 21/18 A3001 RMK A01 T02090176  RH  081%=      5-min Rain = 0
KLE1 151454Z 10006KT 21/18 A3001 RMK A01 T02100175  RH  081%=      5-min Rain = 0
KLE1 151455Z 09006KT 21/18 A3001 RMK A01 T02100178  RH  082%=      5-min Rain = 0
KLE1 151456Z 09006KT 21/18 A3001 RMK A01 T02110176  RH  081%=      5-min Rain = 0
KLE1 151457Z 08005KT 21/18 A3001 RMK A01 T02110178  RH  081%=      5-min Rain = 0
KLE1 151458Z 08006KT 21/18 A3001 RMK A01 T02120178  RH  081%=      5-min Rain = 0
KLE1 151459Z 09006KT 21/18 A3001 RMK A01 T02120176  RH  080%=      5-min Rain = 0
KLE1 151500Z 10006KT 21/18 A3001 RMK A01 T02120177  RH  080%=      5-min Rain = 0
KLE1 151501Z 11005KT 21/18 A3001 RMK A01 T02110179  RH  082%=      5-min Rain = 0
KLE1 151502Z 11006KT 21/18 A3001 RMK A01 T02130180  RH  081%=      5-min Rain = 0
KLE1 151503Z 11007KT 21/18 A3001 RMK A01 T02120179  RH  081%=      5-min Rain = 0
KLE1 151504Z 11007KT 21/18 A3001 RMK A01 T02130178  RH  081%=      5-min Rain = 0
KLE1 151505Z 12007KT 21/18 A3001 RMK A01 T02120176  RH  080%=      5-min Rain = 0
KLE1 151506Z 13007KT 21/18 A3001 RMK A01 T02120178  RH  081%=      5-min Rain = 0
KLE1 151507Z 12006KT 21/18 A3001 RMK A01 T02110177  RH  081%=      5-min Rain = 0
KLE1 151508Z 12006KT 21/18 A3001 RMK A01 T02110178  RH  081%=      5-min Rain = 0
KLE1 151509Z 11005KT 21/18 A3001 RMK A01 T02110179  RH  082%=      5-min Rain = 0
KLE1 151510Z 09006KT 21/18 A3001 RMK A01 T02110179  RH  082%=      5-min Rain = 0
KLE1 151511Z 09006KT 21/18 A3001 RMK A01 T02120179  RH  081%=      5-min Rain = 0
KLE1 151512Z 10005KT 21/18 A3001 RMK A01 T02120178  RH  081%=      5-min Rain = 0
KLE1 151513Z 10006KT 21/18 A3001 RMK A01 T02120181  RH  082%=      5-min Rain = 0
KLE1 151514Z 11008KT 21/18 A3001 RMK A01 T02120181  RH  082%=      5-min Rain = 0
KLE1 151515Z 11008KT 21/18 A3001 RMK A01 T02130181  RH  082%=      5-min Rain = 0
KLE1 151516Z 12007KT 21/18 A3001 RMK A01 T02140180  RH  081%=      5-min Rain = 0
KLE1 151517Z 11006KT 21/18 A3001 RMK A01 T02140181  RH  081%=      5-min Rain = 0
KLE1 151518Z 12006KT 21/18 A3001 RMK A01 T02140181  RH  082%=      5-min Rain = 0
KLE1 151519Z 12007KT 21/18 A3001 RMK A01 T02140181  RH  082%=      5-min Rain = 0
KLE1 151520Z 12007KT 21/18 A3001 RMK A01 T02140182  RH  082%=      5-min Rain = 0
KLE1 151521Z 12006KT 21/18 A3001 RMK A01 T02140181  RH  081%=      5-min Rain = 0
KLE1 151522Z 13005KT 21/18 A3001 RMK A01 T02140181  RH  082%=      5-min Rain = 0
KLE1 151523Z 12006KT 21/18 A3001 RMK A01 T02140181  RH  082%=      5-min Rain = 0
KLE1 151524Z 12006KT 21/18 A3001 RMK A01 T02140182  RH  082%=      5-min Rain = 0
KLE1 151525Z 13006KT 22/18 A3001 RMK A01 T02150184  RH  082%=      5-min Rain = 0
KLE1 151526Z 12006KT 22/18 A3001 RMK A01 T02170181  RH  080%=      5-min Rain = 0
KLE1 151527Z 11006KT 22/18 A3001 RMK A01 T02180183  RH  081%=      5-min Rain = 0
KLE1 151528Z 10007KT 22/18 A3001 RMK A01 T02190182  RH  079%=      5-min Rain = 0
KLE1 151529Z 10006KT 22/18 A3001 RMK A01 T02210182  RH  079%=      5-min Rain = 0
KLE1 151530Z 11006KT 22/18 A3001 RMK A01 T02230183  RH  078%=      5-min Rain = 0
KLE1 151531Z 11005KT 22/18 A3001 RMK A01 T02230183  RH  078%=      5-min Rain = 0
KLE1 151532Z 12005KT 22/18 A3001 RMK A01 T02230183  RH  078%=      5-min Rain = 0
KLE1 151533Z 11004KT 22/18 A3001 RMK A01 T02230183  RH  078%=      5-min Rain = 0
KLE1 151534Z 11006KT 22/19 A3001 RMK A01 T02240187  RH  080%=      5-min Rain = 0
KLE1 151535Z 10005KT 23/18 A3001 RMK A01 T02260184  RH  077%=      5-min Rain = 0
KLE1 151536Z 11006KT 23/18 A3001 RMK A01 T02260183  RH  077%=      5-min Rain = 0
KLE1 151537Z 10006KT 23/18 A3001 RMK A01 T02260184  RH  077%=      5-min Rain = 0
KLE1 151538Z 09006KT 23/19 A3001 RMK A01 T02270186  RH  077%=      5-min Rain = 0
KLE1 151539Z 09006KT 23/19 A3001 RMK A01 T02300187  RH  077%=      5-min Rain = 0
KLE1 151540Z 09005KT 23/19 A3001 RMK A01 T02320185  RH  075%=      5-min Rain = 0
KLE1 151541Z 11005KT 23/19 A3001 RMK A01 T02320185  RH  075%=      5-min Rain = 0
KLE1 151542Z 12007KT 23/19 A3001 RMK A01 T02320185  RH  075%=      5-min Rain = 0
KLE1 151543Z 12007KT 23/19 A3001 RMK A01 T02330185  RH  074%=      5-min Rain = 0
KLE1 151544Z 11006KT 23/18 A3001 RMK A01 T02330183  RH  074%=      5-min Rain = 0
KLE1 151545Z 10007KT 23/19 A3001 RMK A01 T02330186  RH  075%=      5-min Rain = 0
KLE1 151546Z 09006KT 23/18 A3001 RMK A01 T02330184  RH  074%=      5-min Rain = 0
KLE1 151547Z 09005KT 23/19 A3001 RMK A01 T02320185  RH  075%=      5-min Rain = 0
KLE1 151548Z 10005KT 23/19 A3001 RMK A01 T02330189  RH  076%=      5-min Rain = 0
KLE1 151549Z 10006KT 24/19 A3001 RMK A01 T02350186  RH  074%=      5-min Rain = 0
KLE1 151550Z 12006KT 23/19 A3001 RMK A01 T02340186  RH  075%=      5-min Rain = 0
KLE1 151551Z 10004KT 23/19 A3001 RMK A01 T02340186  RH  074%=      5-min Rain = 0
KLE1 151552Z 10004KT 23/19 A3001 RMK A01 T02340188  RH  075%=      5-min Rain = 0
KLE1 151553Z 10004KT 23/19 A3001 RMK A01 T02330186  RH  074%=      5-min Rain = 0
KLE1 151554Z 10005KT 23/19 A3001 RMK A01 T02320186  RH  075%=      5-min Rain = 0
KLE1 151555Z 11004KT 23/18 A3001 RMK A01 T02310184  RH  074%=      5-min Rain = 0
KLE1 151556Z 13006KT 23/19 A3001 RMK A01 T02310187  RH  076%=      5-min Rain = 0
KLE1 151557Z 13006KT 23/19 A3001 RMK A01 T02310186  RH  075%=      5-min Rain = 0
KLE1 151558Z 11006KT 23/19 A3001 RMK A01 T02310185  RH  075%=      5-min Rain = 0
KLE1 151559Z 10006KT 23/18 A3001 RMK A01 T02310184  RH  075%=      5-min Rain = 0
KLE1 151600Z 10005KT 23/18 A3001 RMK A01 T02300183  RH  075%=      5-min Rain = 0
KLE1 151601Z 09004KT 23/18 A3001 RMK A01 T02290183  RH  075%=      5-min Rain = 0
KLE1 151602Z 09005KT 23/19 A3001 RMK A01 T02290186  RH  077%=      5-min Rain = 0
KLE1 151603Z 10005KT 23/19 A3002 RMK A01 T02320188  RH  076%=      5-min Rain = 0
KLE1 151604Z 09004KT 23/19 A3001 RMK A01 T02330186  RH  075%=      5-min Rain = 0
KLE1 151605Z 10005KT 23/19 A3001 RMK A01 T02330188  RH  076%=      5-min Rain = 0
KLE1 151606Z 12005KT 23/19 A3001 RMK A01 T02330189  RH  076%=      5-min Rain = 0
KLE1 151607Z 12005KT 23/19 A3001 RMK A01 T02340189  RH  076%=      5-min Rain = 0
KLE1 151608Z 10004KT 24/19 A3001 RMK A01 T02350187  RH  074%=      5-min Rain = 0
KLE1 151609Z 10005KT 24/19 A3001 RMK A01 T02360189  RH  075%=      5-min Rain = 0
KLE1 151610Z 11005KT 24/19 A3001 RMK A01 T02370188  RH  074%=      5-min Rain = 0
KLE1 151611Z 09006KT 24/19 A3001 RMK A01 T02370189  RH  074%=      5-min Rain = 0
KLE1 151612Z 09005KT 24/19 A3001 RMK A01 T02370186  RH  073%=      5-min Rain = 0
KLE1 151613Z 08004KT 24/19 A3001 RMK A01 T02380186  RH  073%=      5-min Rain = 0
KLE1 151614Z 10005KT 24/19 A3001 RMK A01 T02400188  RH  072%=      5-min Rain = 0
KLE1 151615Z 10007KT 24/19 A3001 RMK A01 T02410189  RH  073%=      5-min Rain = 0
KLE1 151616Z 09005KT 24/19 A3001 RMK A01 T02410188  RH  072%=      5-min Rain = 0
KLE1 151617Z 07005KT 24/19 A3001 RMK A01 T02410189  RH  073%=      5-min Rain = 0
KLE1 151618Z 06007KT 24/19 A3001 RMK A01 T02410189  RH  073%=      5-min Rain = 0
KLE1 151619Z 06007KT 24/19 A3001 RMK A01 T02420186  RH  071%=      5-min Rain = 0
KLE1 151620Z 05006KT 24/19 A3001 RMK A01 T02430187  RH  071%=      5-min Rain = 0
KLE1 151621Z 05005KT 24/19 A3001 RMK A01 T02430186  RH  070%=      5-min Rain = 0
KLE1 151622Z 07004KT 24/19 A3001 RMK A01 T02430188  RH  072%=      5-min Rain = 0
KLE1 151623Z 06005KT 24/19 A3001 RMK A01 T02440191  RH  072%=      5-min Rain = 0
KLE1 151624Z 08004KT 25/19 A3001 RMK A01 T02460187  RH  069%=      5-min Rain = 0
KLE1 151625Z 07004KT 25/19 A3001 RMK A01 T02450187  RH  070%=      5-min Rain = 0
KLE1 151626Z 05003KT 24/19 A3001 RMK A01 T02430185  RH  070%=      5-min Rain = 0
KLE1 151627Z 04004KT 24/19 A3001 RMK A01 T02430188  RH  072%=      5-min Rain = 0
KLE1 151628Z 05004KT 24/19 A3001 RMK A01 T02440185  RH  070%=      5-min Rain = 0
KLE1 151629Z 07003KT 24/19 A3001 RMK A01 T02430186  RH  070%=      5-min Rain = 0
KLE1 151630Z 09004KT 24/19 A3001 RMK A01 T02420186  RH  071%=      5-min Rain = 0
KLE1 151631Z 09006KT 24/19 A3001 RMK A01 T02420188  RH  072%=      5-min Rain = 0
KLE1 151632Z 10007KT 24/19 A3001 RMK A01 T02440190  RH  072%=      5-min Rain = 0
KLE1 151633Z 10006KT 25/19 A3001 RMK A01 T02450190  RH  071%=      5-min Rain = 0
KLE1 151634Z 10004KT 25/19 A3001 RMK A01 T02460190  RH  071%=      5-min Rain = 0
KLE1 151635Z 07002KT 24/19 A3001 RMK A01 T02440190  RH  072%=      5-min Rain = 0
KLE1 151636Z 09003KT 24/19 A3001 RMK A01 T02440194  RH  074%=      5-min Rain = 0
KLE1 151637Z 10005KT 25/19 A3001 RMK A01 T02450191  RH  072%=      5-min Rain = 0
KLE1 151638Z 08005KT 25/19 A3001 RMK A01 T02450192  RH  072%=      5-min Rain = 0
KLE1 151639Z 08006KT 25/19 A3001 RMK A01 T02460192  RH  072%=      5-min Rain = 0
KLE1 151640Z 08008KT 25/19 A3001 RMK A01 T02480192  RH  071%=      5-min Rain = 0
KLE1 151641Z 08008KT 25/19 A3001 RMK A01 T02480190  RH  070%=      5-min Rain = 0
KLE1 151642Z 09009KT 25/19 A3001 RMK A01 T02480191  RH  071%=      5-min Rain = 0
KLE1 151643Z 08009KT 25/19 A3001 RMK A01 T02490191  RH  070%=      5-min Rain = 0
KLE1 151644Z 08008KT 25/19 A3001 RMK A01 T02490190  RH  070%=      5-min Rain = 0
KLE1 151645Z 09006KT 25/19 A3001 RMK A01 T02490188  RH  069%=      5-min Rain = 0
KLE1 151646Z 08007KT 25/19 A3001 RMK A01 T02480192  RH  071%=      5-min Rain = 0
KLE1 151647Z 08012KT 25/20 A3001 RMK A01 T02520200  RH  073%=      5-min Rain = 0
KLE1 151648Z 08011KT 26/20 A3001 RMK A01 T02560195  RH  069%=      5-min Rain = 0
KLE1 151649Z 06010KT 26/19 A3001 RMK A01 T02560193  RH  068%=      5-min Rain = 0
KLE1 151650Z 05011KT 25/19 A3001 RMK A01 T02530188  RH  067%=      5-min Rain = 0
KLE1 151651Z 06009KT 25/19 A3001 RMK A01 T02500188  RH  068%=      5-min Rain = 0
KLE1 151652Z 06009KT 25/19 A3001 RMK A01 T02480186  RH  069%=      5-min Rain = 0
KLE1 151653Z 05009KT 25/19 A3001 RMK A01 T02460186  RH  069%=      5-min Rain = 0
KLE1 151654Z 07010KT 25/19 A3001 RMK A01 T02460187  RH  070%=      5-min Rain = 0
KLE1 151655Z 07010KT 25/19 A3001 RMK A01 T02490191  RH  070%=      5-min Rain = 0
KLE1 151656Z 09009KT 25/19 A3001 RMK A01 T02540191  RH  068%=      5-min Rain = 0
KLE1 151657Z 09009KT 26/19 A3001 RMK A01 T02560191  RH  067%=      5-min Rain = 0
KLE1 151658Z 06010G15KT 26/20 A3001 RMK A01 T02560195  RH  069%=      5-min Rain = 0
KLE1 151659Z 06011KT 26/20 A3001 RMK A01 T02560195  RH  069%=      5-min Rain = 0
KLE1 151700Z 06011KT 26/19 A3001 RMK A01 T02550189  RH  067%=      5-min Rain = 0
KLE1 151701Z 08009KT 25/19 A3001 RMK A01 T02530190  RH  068%=      5-min Rain = 0
KLE1 151702Z 08007KT 25/19 A3001 RMK A01 T02530188  RH  067%=      5-min Rain = 0
KLE1 151703Z 09010KT 25/19 A3001 RMK A01 T02530193  RH  069%=      5-min Rain = 0
KLE1 151704Z 09011KT 26/20 A3001 RMK A01 T02550195  RH  070%=      5-min Rain = 0
KLE1 151705Z 09011KT 26/20 A3001 RMK A01 T02580196  RH  069%=      5-min Rain = 0
KLE1 151706Z 08010KT 26/19 A3001 RMK A01 T02570190  RH  067%=      5-min Rain = 0
KLE1 151707Z 07009KT 25/19 A3001 RMK A01 T02530192  RH  069%=      5-min Rain = 0
KLE1 151708Z 05013KT 25/19 A3001 RMK A01 T02520194  RH  070%=      5-min Rain = 0
KLE1 151709Z 05013KT 25/19 A3001 RMK A01 T02500189  RH  069%=      5-min Rain = 0
KLE1 151710Z 05013KT 25/19 A3001 RMK A01 T02480191  RH  071%=      5-min Rain = 0
KLE1 151711Z 05013KT 25/19 A3002 RMK A01 T02450189  RH  071%=      5-min Rain = 0
KLE1 151712Z 05012KT 24/19 A3002 RMK A01 T02430190  RH  072%=      5-min Rain = 0
KLE1 151713Z 05011KT 24/19 A3002 RMK A01 T02430189  RH  072%=      5-min Rain = 0
KLE1 151714Z 06011G17KT 24/19 A3002 RMK A01 T02420189  RH  072%=      5-min Rain = 0
KLE1 151715Z 04014KT 24/19 A3002 RMK A01 T02430191  RH  073%=      5-min Rain = 0
KLE1 151716Z 03013KT 25/19 A3002 RMK A01 T02460190  RH  071%=      5-min Rain = 0
KLE1 151717Z 03011KT 25/19 A3002 RMK A01 T02470189  RH  070%=      5-min Rain = 0
KLE1 151718Z 04013KT 25/19 A3002 RMK A01 T02460190  RH  071%=      5-min Rain = 0
KLE1 151719Z 05015KT 25/19 A3002 RMK A01 T02470191  RH  071%=      5-min Rain = 0
KLE1 151720Z 05013KT 25/19 A3002 RMK A01 T02480189  RH  070%=      5-min Rain = 0
KLE1 151721Z 04010KT 25/19 A3002 RMK A01 T02490192  RH  070%=      5-min Rain = 0
KLE1 151722Z 04015KT 25/19 A3002 RMK A01 T02510191  RH  070%=      5-min Rain = 0
KLE1 151723Z 05015KT 25/19 A3002 RMK A01 T02500190  RH  070%=      5-min Rain = 0
KLE1 151724Z 05012KT 25/19 A3002 RMK A01 T02490188  RH  069%=      5-min Rain = 0
KLE1 151725Z 05012KT 25/19 A3002 RMK A01 T02500194  RH  071%=      5-min Rain = 0
KLE1 151726Z 05014G19KT 25/19 A3002 RMK A01 T02530191  RH  068%=      5-min Rain = 0
KLE1 151727Z 05013KT 25/19 A3002 RMK A01 T02510188  RH  068%=      5-min Rain = 0
KLE1 151728Z 05011KT 25/19 A3002 RMK A01 T02470187  RH  069%=      5-min Rain = 0
KLE1 151729Z 05012KT 25/19 A3002 RMK A01 T02460187  RH  070%=      5-min Rain = 0
KLE1 151730Z 05012KT 25/19 A3002 RMK A01 T02450187  RH  070%=      5-min Rain = 0
KLE1 151731Z 06012KT 25/19 A3002 RMK A01 T02450187  RH  070%=      5-min Rain = 0
KLE1 151732Z 05013KT 25/19 A3002 RMK A01 T02470188  RH  070%=      5-min Rain = 0
KLE1 151733Z 05011KT 25/19 A3002 RMK A01 T02470187  RH  069%=      5-min Rain = 0
KLE1 151734Z 04014KT 25/19 A3002 RMK A01 T02460187  RH  070%=      5-min Rain = 0
KLE1 151735Z 04012KT 25/19 A3002 RMK A01 T02460186  RH  069%=      5-min Rain = 0
KLE1 151736Z 04010KT 25/19 A3002 RMK A01 T02460186  RH  069%=      5-min Rain = 0
KLE1 151737Z 04013KT 25/18 A3002 RMK A01 T02450184  RH  069%=      5-min Rain = 0
KLE1 151738Z 04011KT 24/18 A3002 RMK A01 T02440184  RH  069%=      5-min Rain = 0
KLE1 151739Z 05011KT 24/19 A3002 RMK A01 T02430186  RH  070%=      5-min Rain = 0
KLE1 151740Z 06013KT 24/18 A3002 RMK A01 T02440183  RH  069%=      5-min Rain = 0
KLE1 151741Z 05013KT 24/18 A3002 RMK A01 T02430183  RH  069%=      5-min Rain = 0
KLE1 151742Z 06013KT 24/18 A3002 RMK A01 T02430183  RH  069%=      5-min Rain = 0
KLE1 151743Z 03012KT 24/18 A3002 RMK A01 T02420183  RH  070%=      5-min Rain = 0
KLE1 151744Z 05011KT 24/18 A3002 RMK A01 T02420183  RH  069%=      5-min Rain = 0
KLE1 151745Z 05013KT 24/18 A3003 RMK A01 T02420184  RH  070%=      5-min Rain = 0
KLE1 151746Z 05013KT 24/18 A3003 RMK A01 T02430184  RH  070%=      5-min Rain = 0
KLE1 151747Z 05014KT 24/19 A3003 RMK A01 T02430186  RH  071%=      5-min Rain = 0
KLE1 151748Z 06013KT 24/19 A3003 RMK A01 T02440185  RH  070%=      5-min Rain = 0
KLE1 151749Z 05013KT 24/19 A3003 RMK A01 T02440186  RH  070%=      5-min Rain = 0
KLE1 151750Z 05014KT 25/19 A3003 RMK A01 T02460185  RH  069%=      5-min Rain = 0
KLE1 151751Z 04013KT 25/18 A3003 RMK A01 T02450184  RH  068%=      5-min Rain = 0
KLE1 151752Z 05014KT 25/18 A3003 RMK A01 T02450184  RH  069%=      5-min Rain = 0
KLE1 151753Z 05012KT 24/18 A3003 RMK A01 T02440183  RH  069%=      5-min Rain = 0
KLE1 151754Z 05016KT 24/18 A3003 RMK A01 T02430184  RH  069%=      5-min Rain = 0
KLE1 151755Z 04015KT 24/18 A3003 RMK A01 T02420181  RH  069%=      5-min Rain = 0
KLE1 151756Z 04014KT 24/18 A3003 RMK A01 T02410181  RH  069%=      5-min Rain = 0
KLE1 151757Z 04012KT 24/18 A3003 RMK A01 T02420184  RH  070%=      5-min Rain = 0
KLE1 151758Z 04014KT 25/18 A3003 RMK A01 T02460182  RH  068%=      5-min Rain = 0
KLE1 151759Z 04015KT 25/18 A3003 RMK A01 T02460180  RH  067%=      5-min Rain = 0
KLE1 151800Z 05014KT 25/18 A3003 RMK A01 T02450179  RH  067%=      5-min Rain = 0
KLE1 151801Z 05014KT 25/18 A3003 RMK A01 T02450181  RH  068%=      5-min Rain = 0
KLE1 151802Z 06012KT 25/18 A3003 RMK A01 T02460181  RH  067%=      5-min Rain = 0
KLE1 151803Z 05013KT 25/18 A3002 RMK A01 T02480183  RH  067%=      5-min Rain = 0
KLE1 151804Z 05012KT 25/19 A3002 RMK A01 T02490185  RH  068%=      5-min Rain = 0
KLE1 151805Z 05011KT 25/19 A3002 RMK A01 T02510187  RH  068%=      5-min Rain = 0
KLE1 151806Z 05012KT 25/19 A3002 RMK A01 T02540189  RH  067%=      5-min Rain = 0
KLE1 151807Z 04013KT 26/19 A3002 RMK A01 T02580188  RH  065%=      5-min Rain = 0
KLE1 151808Z 05014KT 26/19 A3002 RMK A01 T02590185  RH  064%=      5-min Rain = 0
KLE1 151809Z 05015KT 26/18 A3002 RMK A01 T02560182  RH  064%=      5-min Rain = 0
KLE1 151810Z 05013KT 25/18 A3002 RMK A01 T02530182  RH  064%=      5-min Rain = 0
KLE1 151811Z 06015KT 25/18 A3002 RMK A01 T02530180  RH  064%=      5-min Rain = 0
KLE1 151812Z 07012KT 25/18 A3002 RMK A01 T02490176  RH  064%=      5-min Rain = 0
KLE1 151813Z 05012KT 25/18 A3002 RMK A01 T02460180  RH  067%=      5-min Rain = 0
KLE1 151814Z 04011KT 25/18 A3002 RMK A01 T02470180  RH  066%=      5-min Rain = 0
KLE1 151815Z 04009KT 25/18 A3002 RMK A01 T02500182  RH  066%=      5-min Rain = 0
KLE1 151816Z 03013KT 25/18 A3002 RMK A01 T02520182  RH  065%=      5-min Rain = 0
KLE1 151817Z 05015KT 25/18 A3002 RMK A01 T02530180  RH  064%=      5-min Rain = 0
KLE1 151818Z 06013KT 25/18 A3002 RMK A01 T02500179  RH  064%=      5-min Rain = 0
KLE1 151819Z 05012KT 25/18 A3002 RMK A01 T02480180  RH  066%=      5-min Rain = 0
KLE1 151820Z 04012KT 25/18 A3002 RMK A01 T02490182  RH  066%=      5-min Rain = 0
KLE1 151821Z 03014KT 25/18 A3002 RMK A01 T02500181  RH  065%=      5-min Rain = 0
KLE1 151822Z 04014KT 25/18 A3002 RMK A01 T02500180  RH  065%=      5-min Rain = 0
KLE1 151823Z 04015KT 25/18 A3002 RMK A01 T02500180  RH  065%=      5-min Rain = 0
KLE1 151824Z 04014KT 25/18 A3002 RMK A01 T02500179  RH  065%=      5-min Rain = 0
KLE1 151825Z 05013KT 25/18 A3002 RMK A01 T02480178  RH  065%=      5-min Rain = 0
KLE1 151826Z 05013KT 25/18 A3002 RMK A01 T02480181  RH  066%=      5-min Rain = 0
KLE1 151827Z 05014KT 25/18 A3002 RMK A01 T02510183  RH  066%=      5-min Rain = 0
KLE1 151828Z 05011KT 25/18 A3002 RMK A01 T02530181  RH  065%=      5-min Rain = 0
KLE1 151829Z 06012KT 25/18 A3002 RMK A01 T02540184  RH  065%=      5-min Rain = 0
KLE1 151830Z 06014KT 26/19 A3002 RMK A01 T02580186  RH  065%=      5-min Rain = 0
KLE1 151831Z 06011KT 26/18 A3002 RMK A01 T02570178  RH  062%=      5-min Rain = 0
KLE1 151832Z 06011KT 25/18 A3002 RMK A01 T02540184  RH  065%=      5-min Rain = 0
KLE1 151833Z 05012KT 26/19 A3002 RMK A01 T02570185  RH  065%=      5-min Rain = 0
KLE1 151834Z 03013KT 26/18 A3002 RMK A01 T02590182  RH  063%=      5-min Rain = 0
KLE1 151835Z 03013KT 26/18 A3003 RMK A01 T02560179  RH  063%=      5-min Rain = 0
KLE1 151836Z 03013KT 25/18 A3003 RMK A01 T02540179  RH  063%=      5-min Rain = 0
KLE1 151837Z 04010KT 25/18 A3003 RMK A01 T02530180  RH  064%=      5-min Rain = 0
KLE1 151838Z 05013KT 25/18 A3002 RMK A01 T02510180  RH  065%=      5-min Rain = 0
KLE1 151839Z 04014KT 25/18 A3002 RMK A01 T02480180  RH  066%=      5-min Rain = 0
KLE1 151840Z 05013KT 25/18 A3002 RMK A01 T02470182  RH  067%=      5-min Rain = 0
KLE1 151841Z 05014KT 25/18 A3002 RMK A01 T02490180  RH  065%=      5-min Rain = 0
KLE1 151842Z 04011KT 25/18 A3002 RMK A01 T02490180  RH  066%=      5-min Rain = 0
KLE1 151843Z 07011KT 25/18 A3003 RMK A01 T02510184  RH  066%=      5-min Rain = 0
KLE1 151844Z 08013KT 26/18 A3002 RMK A01 T02550184  RH  065%=      5-min Rain = 0
KLE1 151845Z 06009KT 26/18 A3003 RMK A01 T02570184  RH  064%=      5-min Rain = 0
KLE1 151846Z 06011G16KT 26/19 A3002 RMK A01 T02590187  RH  065%=      5-min Rain = 0
KLE1 151847Z 06012KT 26/19 A3002 RMK A01 T02620185  RH  063%=      5-min Rain = 0
KLE1 151848Z 06013KT 26/18 A3002 RMK A01 T02610181  RH  061%=      5-min Rain = 0
KLE1 151849Z 06010KT 26/18 A3002 RMK A01 T02580178  RH  061%=      5-min Rain = 0
KLE1 151850Z 04013KT 26/18 A3002 RMK A01 T02550181  RH  064%=      5-min Rain = 0
KLE1 151851Z 04013KT 26/18 A3002 RMK A01 T02560183  RH  064%=      5-min Rain = 0
KLE1 151852Z 03014KT 26/18 A3002 RMK A01 T02580181  RH  063%=      5-min Rain = 0
KLE1 151853Z 04012KT 26/18 A3002 RMK A01 T02560180  RH  063%=      5-min Rain = 0
KLE1 151854Z 05012KT 26/18 A3002 RMK A01 T02550181  RH  064%=      5-min Rain = 0
KLE1 151855Z 05014KT 25/18 A3002 RMK A01 T02540180  RH  063%=      5-min Rain = 0
KLE1 151856Z 05011KT 25/18 A3003 RMK A01 T02520177  RH  063%=      5-min Rain = 0
KLE1 151857Z 06011KT 25/18 A3003 RMK A01 T02510179  RH  065%=      5-min Rain = 0
KLE1 151858Z 05013KT 25/18 A3002 RMK A01 T02530184  RH  065%=      5-min Rain = 0
KLE1 151859Z 06011KT 26/18 A3003 RMK A01 T02560182  RH  064%=      5-min Rain = 0
KLE1 151900Z 04007G12KT 26/18 A3002 RMK A01 T02570183  RH  064%=      5-min Rain = 0
KLE1 151901Z 04012KT 26/18 A3002 RMK A01 T02590183  RH  063%=      5-min Rain = 0
KLE1 151902Z 03013KT 26/18 A3002 RMK A01 T02590179  RH  062%=      5-min Rain = 0
KLE1 151903Z 03012KT 26/18 A3002 RMK A01 T02560180  RH  063%=      5-min Rain = 0
KLE1 151904Z 04011KT 26/18 A3002 RMK A01 T02550181  RH  064%=      5-min Rain = 0
KLE1 151905Z 03011KT 26/18 A3002 RMK A01 T02560181  RH  063%=      5-min Rain = 0
KLE1 151906Z 04011KT 26/18 A3002 RMK A01 T02550182  RH  064%=      5-min Rain = 0
KLE1 151907Z 03012KT 25/18 A3002 RMK A01 T02540182  RH  064%=      5-min Rain = 0
KLE1 151908Z 03011KT 25/18 A3002 RMK A01 T02510180  RH  065%=      5-min Rain = 0
KLE1 151909Z 04012KT 25/18 A3002 RMK A01 T02500182  RH  066%=      5-min Rain = 0
KLE1 151910Z 03012KT 25/18 A3002 RMK A01 T02510183  RH  066%=      5-min Rain = 0
KLE1 151911Z 04012G17KT 25/18 A3002 RMK A01 T02500181  RH  066%=      5-min Rain = 0
KLE1 151912Z 05014KT 25/18 A3002 RMK A01 T02500183  RH  066%=      5-min Rain = 0
KLE1 151913Z 05012KT 25/18 A3002 RMK A01 T02530184  RH  066%=      5-min Rain = 0
KLE1 151914Z 05011KT 26/19 A3002 RMK A01 T02560185  RH  065%=      5-min Rain = 0
KLE1 151915Z 06012KT 26/19 A3002 RMK A01 T02600188  RH  064%=      5-min Rain = 0
KLE1 151916Z 07012KT 26/19 A3002 RMK A01 T02640185  RH  062%=      5-min Rain = 0
KLE1 151917Z 05012KT 26/19 A3002 RMK A01 T02620186  RH  063%=      5-min Rain = 0
KLE1 151918Z 04011KT 26/19 A3002 RMK A01 T02630186  RH  062%=      5-min Rain = 0
KLE1 151919Z 03011KT 26/18 A3002 RMK A01 T02630182  RH  061%=      5-min Rain = 0
KLE1 151920Z 05013KT 26/19 A3002 RMK A01 T02610187  RH  064%=      5-min Rain = 0
KLE1 151921Z 05011KT 26/18 A3002 RMK A01 T02620184  RH  062%=      5-min Rain = 0
KLE1 151922Z 04013KT 26/19 A3002 RMK A01 T02630186  RH  063%=      5-min Rain = 0
KLE1 151923Z 05013KT 26/18 A3002 RMK A01 T02620183  RH  062%=      5-min Rain = 0
KLE1 151924Z 04011KT 26/18 A3002 RMK A01 T02600182  RH  062%=      5-min Rain = 0
KLE1 151925Z 05010KT 26/18 A3001 RMK A01 T02560180  RH  063%=      5-min Rain = 0
KLE1 151926Z 05012KT 25/18 A3001 RMK A01 T02540183  RH  065%=      5-min Rain = 0
KLE1 151927Z 05011KT 25/18 A3001 RMK A01 T02520183  RH  065%=      5-min Rain = 0
KLE1 151928Z 06013KT 25/18 A3001 RMK A01 T02510182  RH  065%=      5-min Rain = 0
KLE1 151929Z 06011KT 25/18 A3001 RMK A01 T02520184  RH  066%=      5-min Rain = 0
KLE1 151930Z 06011KT 26/18 A3001 RMK A01 T02550183  RH  064%=      5-min Rain = 0
KLE1 151931Z 06010KT 26/18 A3001 RMK A01 T02580184  RH  063%=      5-min Rain = 0
KLE1 151932Z 06007KT 26/18 A3001 RMK A01 T02590183  RH  063%=      5-min Rain = 0
KLE1 151933Z 06008KT 26/18 A3001 RMK A01 T02610184  RH  063%=      5-min Rain = 0
KLE1 151934Z 06010KT 26/19 A3001 RMK A01 T02620187  RH  063%=      5-min Rain = 0
KLE1 151935Z 07009KT 27/19 A3001 RMK A01 T02660188  RH  062%=      5-min Rain = 0
KLE1 151936Z 08011KT 27/19 A3001 RMK A01 T02690188  RH  061%=      5-min Rain = 0
KLE1 151937Z 08010KT 27/18 A3001 RMK A01 T02690182  RH  059%=      5-min Rain = 0
KLE1 151938Z 07009KT 27/18 A3001 RMK A01 T02650182  RH  060%=      5-min Rain = 0
KLE1 151939Z 04009KT 26/18 A3001 RMK A01 T02620183  RH  061%=      5-min Rain = 0
KLE1 151940Z 05009KT 26/19 A3001 RMK A01 T02610185  RH  063%=      5-min Rain = 0
KLE1 151941Z 06011KT 26/19 A3001 RMK A01 T02620185  RH  062%=      5-min Rain = 0
KLE1 151942Z 06009KT 26/18 A3001 RMK A01 T02630183  RH  061%=      5-min Rain = 0
KLE1 151943Z 07010KT 26/18 A3001 RMK A01 T02630183  RH  061%=      5-min Rain = 0
KLE1 151944Z 06011G16KT 27/19 A3001 RMK A01 T02650188  RH  063%=      5-min Rain = 0
KLE1 151945Z 05009KT 27/18 A3001 RMK A01 T02680184  RH  060%=      5-min Rain = 0
KLE1 151946Z 06008KT 27/19 A3001 RMK A01 T02670185  RH  061%=      5-min Rain = 0
KLE1 151947Z 08010KT 27/18 A3001 RMK A01 T02660182  RH  060%=      5-min Rain = 0
KLE1 151948Z 08010KT 26/18 A3001 RMK A01 T02640182  RH  060%=      5-min Rain = 0
KLE1 151949Z 07008KT 27/18 A3001 RMK A01 T02650182  RH  060%=      5-min Rain = 0
KLE1 151950Z 08010KT 26/18 A3001 RMK A01 T02640181  RH  060%=      5-min Rain = 0
KLE1 151951Z 09010KT 26/18 A3001 RMK A01 T02630182  RH  061%=      5-min Rain = 0
KLE1 151952Z 08005KT 26/18 A3001 RMK A01 T02610182  RH  061%=      5-min Rain = 0
KLE1 151953Z 06007KT 26/18 A3001 RMK A01 T02600181  RH  061%=      5-min Rain = 0
KLE1 151954Z 04008KT 26/18 A3001 RMK A01 T02610182  RH  062%=      5-min Rain = 0
KLE1 151955Z 03009KT 26/18 A3001 RMK A01 T02640181  RH  060%=      5-min Rain = 0
KLE1 151956Z 04008KT 26/18 A3001 RMK A01 T02630179  RH  060%=      5-min Rain = 0
KLE1 151957Z 06007KT 26/18 A30 RMK A01 T02610182  RH  062%=      5-min Rain = 0
KLE1 151958Z 08010KT 26/18 A30 RMK A01 T02630184  RH  062%=      5-min Rain = 0
KLE1 151959Z 09011KT 27/18 A30 RMK A01 T02660184  RH  061%=      5-min Rain = 0
KLE1 152000Z 09008KT 27/18 A30 RMK A01 T02670182  RH  059%=      5-min Rain = 0
KLE1 152001Z 11006KT 27/18 A30 RMK A01 T02670180  RH  059%=      5-min Rain = 0
KLE1 152002Z 11007KT 27/18 A30 RMK A01 T02650180  RH  060%=      5-min Rain = 0
KLE1 152003Z 08010KT 27/18 A30 RMK A01 T02650184  RH  061%=      5-min Rain = 0
KLE1 152004Z 10007KT 27/18 A30 RMK A01 T02670183  RH  060%=      5-min Rain = 0
KLE1 152005Z 09006KT 27/18 A30 RMK A01 T02680183  RH  059%=      5-min Rain = 0
KLE1 152006Z 07006KT 27/18 A30 RMK A01 T02680181  RH  059%=      5-min Rain = 0
KLE1 152007Z 06006KT 27/18 A30 RMK A01 T02660181  RH  060%=      5-min Rain = 0
KLE1 152008Z 06007KT 27/18 A30 RMK A01 T02650183  RH  060%=      5-min Rain = 0
KLE1 152009Z 06008KT 27/18 A30 RMK A01 T02660183  RH  060%=      5-min Rain = 0
KLE1 152010Z 08007KT 27/18 A30 RMK A01 T02660184  RH  061%=      5-min Rain = 0
KLE1 152011Z 08007KT 27/19 A30 RMK A01 T02690186  RH  061%=      5-min Rain = 0
KLE1 152012Z 07008KT 27/18 A30 RMK A01 T02710184  RH  059%=      5-min Rain = 0
KLE1 152013Z 07006KT 27/18 A30 RMK A01 T02730184  RH  059%=      5-min Rain = 0
KLE1 152014Z 06006KT 27/18 A30 RMK A01 T02730184  RH  058%=      5-min Rain = 0
KLE1 152015Z 07005KT 27/18 A30 RMK A01 T02730182  RH  058%=      5-min Rain = 0
KLE1 152016Z 08007KT 27/18 A30 RMK A01 T02730183  RH  058%=      5-min Rain = 0
KLE1 152017Z 09007KT 27/18 A30 RMK A01 T02720183  RH  058%=      5-min Rain = 0
KLE1 152018Z 10007KT 27/19 A30 RMK A01 T02730185  RH  059%=      5-min Rain = 0
KLE1 152019Z 09005KT 27/18 A30 RMK A01 T02720181  RH  057%=      5-min Rain = 0
KLE1 152020Z 11006KT 27/18 A30 RMK A01 T02700180  RH  058%=      5-min Rain = 0
KLE1 152021Z 11005KT 27/18 A30 RMK A01 T02670180  RH  059%=      5-min Rain = 0
KLE1 152022Z 11004KT 27/18 A30 RMK A01 T02670181  RH  059%=      5-min Rain = 0
KLE1 152023Z 10005KT 27/18 A2999 RMK A01 T02670180  RH  059%=      5-min Rain = 0
KLE1 152024Z 10006KT 27/18 A2999 RMK A01 T02690181  RH  059%=      5-min Rain = 0
KLE1 152025Z 10005KT 27/18 A2999 RMK A01 T02700181  RH  058%=      5-min Rain = 0
KLE1 152026Z 11007KT 27/18 A2999 RMK A01 T02730183  RH  058%=      5-min Rain = 0
KLE1 152027Z 13006KT 28/18 A2999 RMK A01 T02750179  RH  056%=      5-min Rain = 0
KLE1 152028Z 13006KT 27/18 A2999 RMK A01 T02740179  RH  056%=      5-min Rain = 0
KLE1 152029Z 13006KT 27/18 A2999 RMK A01 T02730179  RH  057%=      5-min Rain = 0
KLE1 152030Z 11005KT 27/18 A2999 RMK A01 T02730176  RH  056%=      5-min Rain = 0
KLE1 152031Z 12005KT 27/17 A2999 RMK A01 T02710174  RH  055%=      5-min Rain = 0
KLE1 152032Z 12005KT 27/18 A2999 RMK A01 T02690175  RH  056%=      5-min Rain = 0
KLE1 152033Z 10004KT 27/18 A2999 RMK A01 T02680176  RH  057%=      5-min Rain = 0
KLE1 152034Z 11003KT 27/18 A2999 RMK A01 T02680177  RH  058%=      5-min Rain = 0
KLE1 152035Z 13002KT 27/18 A2999 RMK A01 T02680178  RH  058%=      5-min Rain = 0
KLE1 152036Z 10004KT 27/18 A2998 RMK A01 T02680179  RH  058%=      5-min Rain = 0
KLE1 152037Z 09003KT 27/18 A2998 RMK A01 T02710178  RH  057%=      5-min Rain = 0
KLE1 152038Z 02002KT 27/18 A2998 RMK A01 T02710176  RH  056%=      5-min Rain = 0
KLE1 152039Z 06005KT 27/18 A2998 RMK A01 T02710181  RH  058%=      5-min Rain = 0
KLE1 152040Z 07007KT 28/18 A2998 RMK A01 T02750183  RH  057%=      5-min Rain = 0
KLE1 152041Z 06007KT 28/18 A2998 RMK A01 T02790182  RH  055%=      5-min Rain = 0
KLE1 152042Z 05004KT 28/18 A2998 RMK A01 T02780178  RH  054%=      5-min Rain = 0
KLE1 152043Z 04003KT 28/18 A2998 RMK A01 T02760177  RH  055%=      5-min Rain = 0
KLE1 152044Z 07004KT 28/18 A2998 RMK A01 T02750177  RH  055%=      5-min Rain = 0
KLE1 152045Z 10006KT 27/18 A2998 RMK A01 T02740182  RH  057%=      5-min Rain = 0
KLE1 152046Z 10006KT 28/18 A2998 RMK A01 T02780181  RH  056%=      5-min Rain = 0
KLE1 152047Z 12006KT 28/18 A2998 RMK A01 T02790179  RH  055%=      5-min Rain = 0
KLE1 152048Z 13005KT 28/18 A2998 RMK A01 T02780178  RH  055%=      5-min Rain = 0
KLE1 152049Z 13006KT 28/18 A2998 RMK A01 T02770181  RH  056%=      5-min Rain = 0
KLE1 152050Z 15003KT 28/18 A2998 RMK A01 T02790181  RH  055%=      5-min Rain = 0
KLE1 152051Z 18002KT 28/18 A2998 RMK A01 T02810176  RH  053%=      5-min Rain = 0
KLE1 152052Z 21001KT 28/17 A2998 RMK A01 T02800174  RH  053%=      5-min Rain = 0
KLE1 152053Z 23001KT 28/18 A2998 RMK A01 T02800179  RH  054%=      5-min Rain = 0
KLE1 152054Z 04002KT 28/18 A2998 RMK A01 T02820182  RH  054%=      5-min Rain = 0
KLE1 152055Z 06003KT 28/18 A2998 RMK A01 T02840179  RH  053%=      5-min Rain = 0
KLE1 152056Z 09008KT 28/18 A2997 RMK A01 T02840182  RH  054%=      5-min Rain = 0
KLE1 152057Z 10006KT 29/18 A2997 RMK A01 T02850176  RH  052%=      5-min Rain = 0
KLE1 152058Z 10004KT 28/18 A2997 RMK A01 T02820175  RH  052%=      5-min Rain = 0
KLE1 152059Z 10003KT 28/18 A2997 RMK A01 T02800177  RH  053%=      5-min Rain = 0
KLE1 152100Z 11007KT 28/18 A2997 RMK A01 T02810181  RH  055%=      5-min Rain = 0
KLE1 152101Z 11006KT 28/18 A2997 RMK A01 T02840183  RH  054%=      5-min Rain = 0
KLE1 152102Z 12008KT 29/18 A2997 RMK A01 T02860180  RH  053%=      5-min Rain = 0
KLE1 152103Z 13007KT 28/18 A2997 RMK A01 T02840179  RH  053%=      5-min Rain = 0
KLE1 152104Z 12006KT 28/18 A2997 RMK A01 T02820178  RH  053%=      5-min Rain = 0
KLE1 152105Z 11008KT 28/18 A2997 RMK A01 T02810180  RH  054%=      5-min Rain = 0
KLE1 152106Z 10008KT 28/18 A2997 RMK A01 T02820178  RH  053%=      5-min Rain = 0
KLE1 152107Z 13006KT 28/18 A2997 RMK A01 T02820179  RH  053%=      5-min Rain = 0
KLE1 152108Z 13006KT 28/17 A2997 RMK A01 T02820174  RH  052%=      5-min Rain = 0
KLE1 152109Z 11004KT 28/17 A2997 RMK A01 T02800174  RH  052%=      5-min Rain = 0
KLE1 152110Z 10005KT 28/18 A2997 RMK A01 T02790175  RH  053%=      5-min Rain = 0
KLE1 152111Z 09003KT 28/17 A2997 RMK A01 T02800174  RH  052%=      5-min Rain = 0
KLE1 152112Z 09002KT 28/17 A2997 RMK A01 T02810172  RH  051%=      5-min Rain = 0
KLE1 152113Z 10001KT 28/17 A2997 RMK A01 T02800171  RH  052%=      5-min Rain = 0
KLE1 152114Z 26000KT 28/17 A2997 RMK A01 T02810173  RH  052%=      5-min Rain = 0
KLE1 152115Z 17001KT 28/17 A2997 RMK A01 T02820173  RH  052%=      5-min Rain = 0
KLE1 152116Z 16003KT 28/17 A2996 RMK A01 T02820173  RH  052%=      5-min Rain = 0
KLE1 152117Z 13006KT 28/18 A2996 RMK A01 T02830176  RH  052%=      5-min Rain = 0
KLE1 152118Z 13005KT 28/17 A2996 RMK A01 T02830172  RH  051%=      5-min Rain = 0
KLE1 152119Z 15003KT 28/17 A2996 RMK A01 T02810172  RH  052%=      5-min Rain = 0
KLE1 152120Z 17002KT 28/18 A2996 RMK A01 T02810175  RH  053%=      5-min Rain = 0
KLE1 152121Z 12004KT 28/18 A2996 RMK A01 T02820179  RH  053%=      5-min Rain = 0
KLE1 152122Z 10006KT 29/18 A2996 RMK A01 T02850177  RH  052%=      5-min Rain = 0
KLE1 152123Z 09004KT 29/17 A2996 RMK A01 T02870174  RH  051%=      5-min Rain = 0
KLE1 152124Z 12004KT 29/17 A2996 RMK A01 T02860174  RH  051%=      5-min Rain = 0
KLE1 152125Z 14005KT 29/17 A2996 RMK A01 T02850174  RH  051%=      5-min Rain = 0
KLE1 152126Z 13004KT 29/18 A2996 RMK A01 T02850175  RH  051%=      5-min Rain = 0
KLE1 152127Z 11005KT 29/18 A2996 RMK A01 T02860177  RH  052%=      5-min Rain = 0
KLE1 152128Z 12007KT 29/18 A2996 RMK A01 T02890181  RH  052%=      5-min Rain = 0
KLE1 152129Z 11006KT 29/18 A2996 RMK A01 T02920181  RH  051%=      5-min Rain = 0
KLE1 152130Z 11005KT 29/18 A2996 RMK A01 T02930178  RH  050%=      5-min Rain = 0
KLE1 152131Z 11004KT 29/18 A2996 RMK A01 T02900177  RH  051%=      5-min Rain = 0
KLE1 152132Z 11004KT 29/18 A2996 RMK A01 T02890183  RH  053%=      5-min Rain = 0
KLE1 152133Z 13007KT 29/18 A2996 RMK A01 T02930183  RH  051%=      5-min Rain = 0
KLE1 152134Z 12007KT 30/18 A2996 RMK A01 T02950176  RH  049%=      5-min Rain = 0
KLE1 152135Z 11007KT 29/17 A2996 RMK A01 T02900174  RH  050%=      5-min Rain = 0
KLE1 152136Z 12007KT 29/17 A2996 RMK A01 T02850174  RH  051%=      5-min Rain = 0
KLE1 152137Z 11006KT 28/17 A2996 RMK A01 T02820170  RH  051%=      5-min Rain = 0
KLE1 152138Z 12006KT 28/17 A2996 RMK A01 T02800173  RH  052%=      5-min Rain = 0
KLE1 152139Z 13005KT 28/17 A2995 RMK A01 T02790173  RH  052%=      5-min Rain = 0
KLE1 152140Z 14004KT 28/17 A2995 RMK A01 T02790171  RH  052%=      5-min Rain = 0
KLE1 152141Z 09002KT 28/18 A2995 RMK A01 T02790175  RH  053%=      5-min Rain = 0
KLE1 152142Z 10003KT 28/17 A2995 RMK A01 T02820174  RH  052%=      5-min Rain = 0
KLE1 152143Z 13003KT 28/17 A2995 RMK A01 T02830171  RH  051%=      5-min Rain = 0
KLE1 152144Z 12003KT 28/17 A2995 RMK A01 T02830172  RH  051%=      5-min Rain = 0
KLE1 152145Z 10003KT 28/17 A2995 RMK A01 T02830171  RH  051%=      5-min Rain = 0
KLE1 152146Z 10005KT 28/17 A2995 RMK A01 T02830173  RH  052%=      5-min Rain = 0
KLE1 152147Z 09005KT 28/17 A2995 RMK A01 T02830174  RH  051%=      5-min Rain = 0
KLE1 152148Z 08006KT 28/18 A2995 RMK A01 T02840176  RH  052%=      5-min Rain = 0
KLE1 152149Z 08007KT 29/18 A2995 RMK A01 T02870178  RH  052%=      5-min Rain = 0
KLE1 152150Z 07005KT 29/18 A2995 RMK A01 T02880178  RH  051%=      5-min Rain = 0
KLE1 152151Z 08006KT 29/18 A2995 RMK A01 T02900179  RH  051%=      5-min Rain = 0
KLE1 152152Z 08006KT 29/18 A2995 RMK A01 T02910178  RH  051%=      5-min Rain = 0
KLE1 152153Z 09007KT 29/18 A2995 RMK A01 T02920176  RH  050%=      5-min Rain = 0
KLE1 152154Z 08008KT 29/18 A2995 RMK A01 T02910175  RH  049%=      5-min Rain = 0
KLE1 152155Z 08007KT 29/18 A2995 RMK A01 T02890175  RH  050%=      5-min Rain = 0
KLE1 152156Z 08005KT 29/17 A2995 RMK A01 T02890174  RH  050%=      5-min Rain = 0
KLE1 152157Z 11003KT 29/17 A2994 RMK A01 T02870172  RH  050%=      5-min Rain = 0
KLE1 152158Z 10003KT 29/17 A2994 RMK A01 T02850172  RH  050%=      5-min Rain = 0
KLE1 152159Z 09006KT 29/18 A2994 RMK A01 T02860176  RH  052%=      5-min Rain = 0
KLE1 152200Z 08004KT 29/17 A2994 RMK A01 T02870172  RH  050%=      5-min Rain = 0
KLE1 152201Z 12002KT 29/17 A2994 RMK A01 T02860172  RH  050%=      5-min Rain = 0
KLE1 152202Z 13002KT 29/17 A2994 RMK A01 T02860174  RH  051%=      5-min Rain = 0
KLE1 152203Z 11004KT 29/18 A2994 RMK A01 T02870178  RH  052%=      5-min Rain = 0
KLE1 152204Z 11007KT 29/18 A2994 RMK A01 T02900180  RH  052%=      5-min Rain = 0
KLE1 152205Z 11008KT 29/18 A2994 RMK A01 T02930178  RH  050%=      5-min Rain = 0
KLE1 152206Z 12009KT 29/18 A2994 RMK A01 T02930176  RH  049%=      5-min Rain = 0
KLE1 152207Z 12008KT 29/18 A2994 RMK A01 T02920175  RH  049%=      5-min Rain = 0
KLE1 152208Z 11006KT 29/17 A2994 RMK A01 T02910174  RH  049%=      5-min Rain = 0
KLE1 152209Z 10003KT 29/17 A2994 RMK A01 T02890171  RH  049%=      5-min Rain = 0
KLE1 152210Z 08004KT 29/18 A2994 RMK A01 T02870175  RH  050%=      5-min Rain = 0
KLE1 152211Z 10005KT 29/17 A2994 RMK A01 T02870172  RH  050%=      5-min Rain = 0
KLE1 152212Z 10007KT 29/18 A2994 RMK A01 T02850175  RH  051%=      5-min Rain = 0
KLE1 152213Z 10006KT 28/18 A2994 RMK A01 T02840177  RH  052%=      5-min Rain = 0
KLE1 152214Z 10005KT 28/18 A2994 RMK A01 T02830176  RH  052%=      5-min Rain = 0
KLE1 152215Z 08004KT 28/17 A2994 RMK A01 T02840174  RH  051%=      5-min Rain = 0
KLE1 152216Z 08004KT 28/18 A2994 RMK A01 T02840175  RH  052%=      5-min Rain = 0
KLE1 152217Z 07004KT 29/18 A2994 RMK A01 T02870176  RH  051%=      5-min Rain = 0
KLE1 152218Z 08003KT 29/18 A2994 RMK A01 T02890176  RH  051%=      5-min Rain = 0
KLE1 152219Z 10006KT 29/18 A2994 RMK A01 T02900176  RH  050%=      5-min Rain = 0
KLE1 152220Z 11005KT 29/17 A2993 RMK A01 T02910173  RH  049%=      5-min Rain = 0
KLE1 152221Z 08004KT 29/18 A2993 RMK A01 T02910175  RH  050%=      5-min Rain = 0
KLE1 152222Z 09005KT 29/17 A2993 RMK A01 T02910173  RH  049%=      5-min Rain = 0
KLE1 152223Z 11005KT 29/17 A2993 RMK A01 T02890172  RH  049%=      5-min Rain = 0
KLE1 152224Z 11004KT 29/17 A2993 RMK A01 T02870170  RH  049%=      5-min Rain = 0
KLE1 152225Z 14003KT 29/17 A2993 RMK A01 T02860172  RH  050%=      5-min Rain = 0
KLE1 152226Z 13003KT 29/17 A2993 RMK A01 T02850174  RH  051%=      5-min Rain = 0
KLE1 152227Z 15003KT 28/17 A2993 RMK A01 T02840173  RH  051%=      5-min Rain = 0
KLE1 152228Z 17003KT 28/17 A2993 RMK A01 T02820174  RH  052%=      5-min Rain = 0
KLE1 152229Z 15002KT 28/18 A2993 RMK A01 T02810176  RH  053%=      5-min Rain = 0
KLE1 152230Z 14003KT 28/18 A2993 RMK A01 T02820177  RH  053%=      5-min Rain = 0
KLE1 152231Z 11007KT 28/18 A2993 RMK A01 T02840176  RH  052%=      5-min Rain = 0
KLE1 152232Z 12008KT 29/18 A2993 RMK A01 T02860175  RH  051%=      5-min Rain = 0
KLE1 152233Z 11006KT 29/18 A2993 RMK A01 T02860175  RH  051%=      5-min Rain = 0
KLE1 152234Z 14002KT 29/18 A2993 RMK A01 T02860175  RH  051%=      5-min Rain = 0
KLE1 152235Z 01000KT 29/17 A2992 RMK A01 T02860173  RH  050%=      5-min Rain = 0
KLE1 152236Z 11002KT 29/18 A2992 RMK A01 T02870176  RH  051%=      5-min Rain = 0
KLE1 152237Z 08006KT 29/18 A2992 RMK A01 T02880176  RH  051%=      5-min Rain = 0
KLE1 152238Z 06006KT 29/18 A2992 RMK A01 T02880175  RH  050%=      5-min Rain = 0
KLE1 152239Z 05006KT 29/18 A2992 RMK A01 T02880177  RH  051%=      5-min Rain = 0
KLE1 152240Z 05006KT 29/18 A2992 RMK A01 T02890178  RH  051%=      5-min Rain = 0
KLE1 152241Z 06008KT 29/18 A2992 RMK A01 T02910177  RH  050%=      5-min Rain = 0
KLE1 152242Z 05007KT 29/18 A2992 RMK A01 T02880177  RH  051%=      5-min Rain = 0
KLE1 152243Z 06008KT 29/18 A2992 RMK A01 T02860179  RH  052%=      5-min Rain = 0
KLE1 152244Z 06007KT 29/18 A2992 RMK A01 T02870181  RH  053%=      5-min Rain = 0
KLE1 152245Z 06007KT 29/18 A2992 RMK A01 T02900183  RH  052%=      5-min Rain = 0
KLE1 152246Z 06008KT 29/18 A2992 RMK A01 T02920179  RH  050%=      5-min Rain = 0
KLE1 152247Z 06009KT 29/18 A2992 RMK A01 T02900180  RH  051%=      5-min Rain = 0
KLE1 152248Z 06008KT 29/18 A2992 RMK A01 T02890178  RH  051%=      5-min Rain = 0
KLE1 152249Z 05009KT 29/18 A2992 RMK A01 T02870176  RH  051%=      5-min Rain = 0
KLE1 152250Z 05008KT 29/18 A2992 RMK A01 T02860176  RH  052%=      5-min Rain = 0
KLE1 152251Z 04009KT 29/18 A2992 RMK A01 T02850177  RH  052%=      5-min Rain = 0
KLE1 152252Z 04008KT 29/18 A2992 RMK A01 T02850176  RH  052%=      5-min Rain = 0
KLE1 152253Z 04008KT 28/18 A2991 RMK A01 T02840176  RH  052%=      5-min Rain = 0
KLE1 152254Z 04008KT 29/18 A2991 RMK A01 T02850179  RH  053%=      5-min Rain = 0
KLE1 152255Z 05007KT 29/18 A2991 RMK A01 T02870176  RH  051%=      5-min Rain = 0
KLE1 152256Z 06006KT 29/18 A2991 RMK A01 T02860176  RH  051%=      5-min Rain = 0
KLE1 152257Z 07005KT 28/17 A2991 RMK A01 T02840174  RH  051%=      5-min Rain = 0
KLE1 152258Z 04005KT 28/17 A2991 RMK A01 T02820174  RH  052%=      5-min Rain = 0
KLE1 152259Z 06004KT 28/17 A2991 RMK A01 T02810173  RH  052%=      5-min Rain = 0
KLE1 152300Z 05005KT 28/17 A2991 RMK A01 T02800174  RH  053%=      5-min Rain = 0
KLE1 152301Z 05004KT 28/17 A2991 RMK A01 T02810171  RH  051%=      5-min Rain = 0
KLE1 152302Z 06003KT 28/17 A2991 RMK A01 T02820171  RH  051%=      5-min Rain = 0
KLE1 152303Z 06003KT 28/17 A2991 RMK A01 T02830171  RH  051%=      5-min Rain = 0
KLE1 152304Z 05002KT 28/17 A2991 RMK A01 T02840169  RH  050%=      5-min Rain = 0
KLE1 152305Z 06001KT 28/17 A2991 RMK A01 T02840170  RH  050%=      5-min Rain = 0
KLE1 152306Z 02002KT 29/17 A2991 RMK A01 T02850170  RH  050%=      5-min Rain = 0
KLE1 152307Z 02003KT 29/17 A2991 RMK A01 T02870172  RH  050%=      5-min Rain = 0
KLE1 152308Z 08002KT 29/17 A2991 RMK A01 T02880170  RH  049%=      5-min Rain = 0
KLE1 152309Z 09004KT 29/17 A2991 RMK A01 T02880173  RH  050%=      5-min Rain = 0
KLE1 152310Z 10006KT 29/17 A2991 RMK A01 T02880173  RH  050%=      5-min Rain = 0
KLE1 152311Z 11007KT 29/18 A2991 RMK A01 T02880175  RH  050%=      5-min Rain = 0
KLE1 152312Z 11006KT 29/17 A2991 RMK A01 T02880173  RH  050%=      5-min Rain = 0
KLE1 152313Z 11004KT 29/17 A2991 RMK A01 T02870171  RH  049%=      5-min Rain = 0
KLE1 152314Z 12003KT 29/17 A2991 RMK A01 T02860171  RH  050%=      5-min Rain = 0
KLE1 152315Z 11002KT 29/17 A2991 RMK A01 T02850171  RH  050%=      5-min Rain = 0
KLE1 152316Z 14004KT 29/17 A2991 RMK A01 T02850174  RH  051%=      5-min Rain = 0
KLE1 152317Z 13005KT 29/18 A2991 RMK A01 T02870176  RH  051%=      5-min Rain = 0
KLE1 152318Z 08005KT 29/18 A2991 RMK A01 T02890177  RH  051%=      5-min Rain = 0
KLE1 152319Z 09006KT 29/18 A2991 RMK A01 T02910177  RH  050%=      5-min Rain = 0
KLE1 152320Z 08003KT 29/18 A2991 RMK A01 T02900175  RH  050%=      5-min Rain = 0
KLE1 152321Z 07004KT 29/18 A2991 RMK A01 T02890177  RH  051%=      5-min Rain = 0
KLE1 152322Z 08004KT 29/18 A2991 RMK A01 T02890176  RH  050%=      5-min Rain = 0
KLE1 152323Z 08003KT 29/18 A2991 RMK A01 T02900175  RH  050%=      5-min Rain = 0
KLE1 152324Z 08006KT 29/18 A2991 RMK A01 T02890178  RH  051%=      5-min Rain = 0
KLE1 152325Z 08008KT 29/18 A2991 RMK A01 T02890180  RH  052%=      5-min Rain = 0
KLE1 152326Z 09007KT 29/18 A2991 RMK A01 T02910182  RH  052%=      5-min Rain = 0
KLE1 152327Z 11007KT 29/18 A2991 RMK A01 T02930182  RH  051%=      5-min Rain = 0
KLE1 152328Z 09009KT 29/18 A2991 RMK A01 T02930179  RH  050%=      5-min Rain = 0
KLE1 152329Z 07008KT 29/18 A2991 RMK A01 T02910180  RH  051%=      5-min Rain = 0
KLE1 152330Z 08007KT 29/18 A2991 RMK A01 T02910178  RH  051%=      5-min Rain = 0
KLE1 152331Z 09010KT 29/18 A2991 RMK A01 T02910182  RH  052%=      5-min Rain = 0
KLE1 152332Z 08010KT 29/18 A299 RMK A01 T02890181  RH  052%=      5-min Rain = 0
KLE1 152333Z 09008KT 29/18 A2991 RMK A01 T02880182  RH  053%=      5-min Rain = 0
KLE1 152334Z 10008KT 29/18 A2991 RMK A01 T02880184  RH  053%=      5-min Rain = 0
KLE1 152335Z 11008KT 29/18 A2991 RMK A01 T02860183  RH  054%=      5-min Rain = 0
KLE1 152336Z 09010KT 28/18 A2991 RMK A01 T02840183  RH  054%=      5-min Rain = 0
KLE1 152337Z 09009KT 28/18 A2991 RMK A01 T02830182  RH  054%=      5-min Rain = 0
KLE1 152338Z 09009KT 28/18 A2991 RMK A01 T02810179  RH  054%=      5-min Rain = 0
KLE1 152339Z 09007KT 28/18 A2991 RMK A01 T02780177  RH  054%=      5-min Rain = 0
KLE1 152340Z 09007KT 28/18 A2991 RMK A01 T02760177  RH  055%=      5-min Rain = 0
KLE1 152341Z 09006KT 28/18 A2991 RMK A01 T02760178  RH  055%=      5-min Rain = 0
KLE1 152342Z 09006KT 28/18 A2991 RMK A01 T02760178  RH  055%=      5-min Rain = 0
KLE1 152343Z 08005KT 28/18 A2991 RMK A01 T02750178  RH  055%=      5-min Rain = 0
KLE1 152344Z 09007KT 28/18 A2991 RMK A01 T02760181  RH  056%=      5-min Rain = 0
KLE1 152345Z 10007KT 28/18 A2991 RMK A01 T02750181  RH  056%=      5-min Rain = 0
KLE1 152346Z 11008KT 28/18 A2991 RMK A01 T02750184  RH  058%=      5-min Rain = 0
KLE1 152347Z 10009KT 28/18 A2991 RMK A01 T02750181  RH  057%=      5-min Rain = 0
KLE1 152348Z 09008KT 27/18 A2991 RMK A01 T02740179  RH  056%=      5-min Rain = 0
KLE1 152349Z 09007KT 27/18 A2991 RMK A01 T02740180  RH  057%=      5-min Rain = 0
KLE1 152350Z 10008KT 27/18 A2991 RMK A01 T02740181  RH  057%=      5-min Rain = 0
KLE1 152351Z 09010KT 28/18 A2991 RMK A01 T02760179  RH  056%=      5-min Rain = 0
KLE1 152352Z 09010KT 28/18 A2991 RMK A01 T02770178  RH  055%=      5-min Rain = 0
KLE1 152353Z 09008KT 28/18 A2991 RMK A01 T02770177  RH  054%=      5-min Rain = 0
KLE1 152354Z 09007KT 28/18 A299 RMK A01 T02780177  RH  054%=      5-min Rain = 0
KLE1 152355Z 08008KT 28/18 A299 RMK A01 T02780177  RH  054%=      5-min Rain = 0
KLE1 152356Z 08008KT 28/18 A299 RMK A01 T02780178  RH  055%=      5-min Rain = 0
KLE1 152357Z 09008KT 28/18 A299 RMK A01 T02770180  RH  055%=      5-min Rain = 0
KLE1 152358Z 10007KT 28/18 A299 RMK A01 T02770179  RH  055%=      5-min Rain = 0
KLE1 152359Z 10007KT 28/18 A299 RMK A01 T02770182  RH  056%=      5-min Rain = 0
KLE1 160000Z 08008KT 28/18 A299 RMK A01 T02760183  RH  057%=      5-min Rain = 0
KLE1 160001Z 08008KT 28/18 A299 RMK A01 T02750182  RH  057%=      5-min Rain = 0
KLE1 160002Z 08009KT 27/18 A299 RMK A01 T02740182  RH  057%=      5-min Rain = 0
KLE1 160003Z 07007KT 27/18 A299 RMK A01 T02730180  RH  057%=      5-min Rain = 0
KLE1 160004Z 07007KT 27/18 A299 RMK A01 T02720181  RH  057%=      5-min Rain = 0
KLE1 160005Z 08008KT 27/18 A299 RMK A01 T02710181  RH  058%=      5-min Rain = 0
KLE1 160006Z 08008KT 27/18 A299 RMK A01 T02710181  RH  058%=      5-min Rain = 0
KLE1 160007Z 08006KT 27/18 A299 RMK A01 T02710182  RH  058%=      5-min Rain = 0
KLE1 160008Z 08006KT 27/18 A299 RMK A01 T02710182  RH  058%=      5-min Rain = 0
KLE1 160009Z 07009KT 27/18 A299 RMK A01 T02700183  RH  059%=      5-min Rain = 0
KLE1 160010Z 10010KT 27/18 A299 RMK A01 T02700184  RH  059%=      5-min Rain = 0
KLE1 160011Z 11008KT 27/19 A299 RMK A01 T02710185  RH  059%=      5-min Rain = 0
KLE1 160012Z 11008KT 27/18 A299 RMK A01 T02710184  RH  059%=      5-min Rain = 0
KLE1 160013Z 11008KT 27/18 A299 RMK A01 T02710183  RH  058%=      5-min Rain = 0
KLE1 160014Z 11008KT 27/18 A299 RMK A01 T02710183  RH  059%=      5-min Rain = 0
KLE1 160015Z 11008KT 27/18 A299 RMK A01 T02710183  RH  058%=      5-min Rain = 0
KLE1 160016Z 11009KT 27/18 A299 RMK A01 T02710181  RH  058%=      5-min Rain = 0
KLE1 160017Z 10010KT 27/18 A299 RMK A01 T02710181  RH  058%=      5-min Rain = 0
KLE1 160018Z 10010KT 27/18 A299 RMK A01 T02720179  RH  057%=      5-min Rain = 0
KLE1 160019Z 10009KT 27/18 A299 RMK A01 T02720178  RH  056%=      5-min Rain = 0
KLE1 160020Z 10008KT 27/18 A299 RMK A01 T02730178  RH  056%=      5-min Rain = 0
KLE1 160021Z 10008KT 27/18 A299 RMK A01 T02740179  RH  056%=      5-min Rain = 0
KLE1 160022Z 10008KT 27/18 A299 RMK A01 T02740180  RH  056%=      5-min Rain = 0
KLE1 160023Z 11008KT 27/18 A299 RMK A01 T02740180  RH  056%=      5-min Rain = 0
KLE1 160024Z 11009KT 27/18 A299 RMK A01 T02740180  RH  056%=      5-min Rain = 0
KLE1 160025Z 12009KT 27/18 A299 RMK A01 T02730180  RH  057%=      5-min Rain = 0
KLE1 160026Z 11009KT 27/18 A299 RMK A01 T02730180  RH  057%=      5-min Rain = 0
KLE1 160027Z 10008KT 27/18 A299 RMK A01 T02730181  RH  057%=      5-min Rain = 0
KLE1 160028Z 10007KT 27/18 A299 RMK A01 T02730183  RH  058%=      5-min Rain = 0
KLE1 160029Z 10008KT 27/18 A299 RMK A01 T02720184  RH  058%=      5-min Rain = 0
KLE1 160030Z 11008KT 27/18 A299 RMK A01 T02710183  RH  058%=      5-min Rain = 0
KLE1 160031Z 10009KT 27/18 A299 RMK A01 T02700183  RH  059%=      5-min Rain = 0
KLE1 160032Z 10008KT 27/18 A299 RMK A01 T02700183  RH  059%=      5-min Rain = 0
KLE1 160033Z 10009KT 27/18 A299 RMK A01 T02700183  RH  059%=      5-min Rain = 0
KLE1 160034Z 10009KT 27/18 A299 RMK A01 T02690183  RH  059%=      5-min Rain = 0
KLE1 160035Z 10009KT 27/18 A299 RMK A01 T02690182  RH  059%=      5-min Rain = 0
KLE1 160036Z 09009KT 27/19 A299 RMK A01 T02690185  RH  060%=      5-min Rain = 0
KLE1 160037Z 08009KT 27/19 A299 RMK A01 T02680185  RH  060%=      5-min Rain = 0
KLE1 160038Z 09009KT 27/19 A299 RMK A01 T02680186  RH  061%=      5-min Rain = 0
KLE1 160039Z 09010KT 27/19 A2989 RMK A01 T02670186  RH  061%=      5-min Rain = 0
KLE1 160040Z 11010KT 27/19 A299 RMK A01 T02670187  RH  061%=      5-min Rain = 0
KLE1 160041Z 11010KT 27/19 A299 RMK A01 T02670186  RH  061%=      5-min Rain = 0
KLE1 160042Z 11009KT 27/19 A299 RMK A01 T02670186  RH  061%=      5-min Rain = 0
KLE1 160043Z 11009KT 27/19 A299 RMK A01 T02660187  RH  062%=      5-min Rain = 0
KLE1 160044Z 10009KT 27/19 A299 RMK A01 T02660186  RH  062%=      5-min Rain = 0
KLE1 160045Z 10010KT 27/19 A299 RMK A01 T02650186  RH  062%=      5-min Rain = 0
KLE1 160046Z 10009KT 27/19 A299 RMK A01 T02650185  RH  061%=      5-min Rain = 0
KLE1 160047Z 10009KT 27/19 A299 RMK A01 T02650185  RH  061%=      5-min Rain = 0
KLE1 160048Z 11009KT 27/19 A299 RMK A01 T02650185  RH  062%=      5-min Rain = 0
KLE1 160049Z 10009KT 27/19 A299 RMK A01 T02650186  RH  062%=      5-min Rain = 0
KLE1 160050Z 11009KT 27/19 A299 RMK A01 T02650186  RH  062%=      5-min Rain = 0
KLE1 160051Z 10007KT 27/19 A299 RMK A01 T02650188  RH  063%=      5-min Rain = 0
KLE1 160052Z 10008KT 26/19 A299 RMK A01 T02640189  RH  063%=      5-min Rain = 0
KLE1 160053Z 09008KT 26/19 A299 RMK A01 T02640189  RH  063%=      5-min Rain = 0
KLE1 160054Z 10011KT 26/19 A299 RMK A01 T02640187  RH  063%=      5-min Rain = 0
KLE1 160055Z 09011KT 26/19 A299 RMK A01 T02640185  RH  062%=      5-min Rain = 0
KLE1 160056Z 09010KT 26/19 A299 RMK A01 T02640186  RH  062%=      5-min Rain = 0
KLE1 160057Z 08010KT 26/19 A299 RMK A01 T02640187  RH  063%=      5-min Rain = 0
KLE1 160058Z 07009KT 26/19 A299 RMK A01 T02640186  RH  062%=      5-min Rain = 0
KLE1 160059Z 07009KT 26/19 A299 RMK A01 T02630187  RH  063%=      5-min Rain = 0
KLE1 160100Z 07007KT 26/19 A2991 RMK A01 T02630187  RH  063%=      5-min Rain = 0
KLE1 160101Z 07009KT 26/19 A2991 RMK A01 T02620188  RH  064%=      5-min Rain = 0
KLE1 160102Z 07007KT 26/19 A2991 RMK A01 T02620187  RH  064%=      5-min Rain = 0
KLE1 160103Z 07007KT 26/19 A2991 RMK A01 T02610188  RH  064%=      5-min Rain = 0
KLE1 160104Z 07006KT 26/19 A2991 RMK A01 T02610188  RH  064%=      5-min Rain = 0
KLE1 160105Z 06006KT 26/19 A2991 RMK A01 T02600187  RH  064%=      5-min Rain = 0
KLE1 160106Z 07006KT 26/19 A2991 RMK A01 T02600188  RH  064%=      5-min Rain = 0
KLE1 160107Z 07006KT 26/19 A2991 RMK A01 T02590188  RH  065%=      5-min Rain = 0
KLE1 160108Z 07006KT 26/19 A2992 RMK A01 T02580187  RH  065%=      5-min Rain = 0
KLE1 160109Z 07006KT 26/19 A2992 RMK A01 T02580187  RH  065%=      5-min Rain = 0
KLE1 160110Z 07005KT 26/19 A2992 RMK A01 T02580187  RH  065%=      5-min Rain = 0
KLE1 160111Z 07005KT 26/19 A2992 RMK A01 T02580188  RH  065%=      5-min Rain = 0
KLE1 160112Z 08005KT 26/19 A2992 RMK A01 T02580188  RH  065%=      5-min Rain = 0
KLE1 160113Z 08005KT 26/19 A2993 RMK A01 T02580188  RH  065%=      5-min Rain = 0
KLE1 160114Z 08005KT 26/19 A2993 RMK A01 T02570189  RH  066%=      5-min Rain = 0
KLE1 160115Z 08005KT 26/19 A2993 RMK A01 T02570190  RH  066%=      5-min Rain = 0
KLE1 160116Z 09005KT 26/19 A2993 RMK A01 T02570191  RH  067%=      5-min Rain = 0
KLE1 160117Z 09005KT 26/19 A2994 RMK A01 T02570192  RH  067%=      5-min Rain = 0
KLE1 160118Z 09006KT 26/19 A2994 RMK A01 T02560192  RH  068%=      5-min Rain = 0
KLE1 160119Z 08006KT 26/19 A2994 RMK A01 T02560192  RH  067%=      5-min Rain = 0
KLE1 160120Z 08007KT 26/19 A2994 RMK A01 T02570191  RH  067%=      5-min Rain = 0
KLE1 160121Z 08007KT 26/19 A2994 RMK A01 T02570191  RH  067%=      5-min Rain = 0
KLE1 160122Z 08007KT 26/19 A2994 RMK A01 T02570190  RH  066%=      5-min Rain = 0
KLE1 160123Z 08007KT 26/19 A2994 RMK A01 T02580191  RH  066%=      5-min Rain = 0
KLE1 160124Z 08006KT 26/19 A2994 RMK A01 T02580192  RH  067%=      5-min Rain = 0
KLE1 160125Z 08006KT 26/19 A2994 RMK A01 T02570193  RH  068%=      5-min Rain = 0
KLE1 160126Z 08006KT 26/19 A2994 RMK A01 T02560194  RH  068%=      5-min Rain = 0
KLE1 160127Z 08005KT 26/20 A2994 RMK A01 T02560195  RH  069%=      5-min Rain = 0
KLE1 160128Z 08006KT 26/20 A2994 RMK A01 T02550195  RH  069%=      5-min Rain = 0
KLE1 160129Z 08006KT 26/19 A2994 RMK A01 T02550193  RH  069%=      5-min Rain = 0
KLE1 160130Z 08006KT 26/19 A2994 RMK A01 T02550193  RH  069%=      5-min Rain = 0
KLE1 160131Z 07005KT 26/19 A2994 RMK A01 T02550192  RH  068%=      5-min Rain = 0
KLE1 160132Z 06005KT 26/19 A2995 RMK A01 T02550194  RH  069%=      5-min Rain = 0
KLE1 160133Z 06005KT 26/19 A2995 RMK A01 T02550194  RH  069%=      5-min Rain = 0
KLE1 160134Z 05004KT 26/20 A2995 RMK A01 T02550195  RH  069%=      5-min Rain = 0
KLE1 160135Z 05005KT 26/20 A2996 RMK A01 T02550195  RH  069%=      5-min Rain = 0
KLE1 160136Z 05005KT 26/19 A2996 RMK A01 T02550194  RH  069%=      5-min Rain = 0
KLE1 160137Z 05005KT 25/19 A2996 RMK A01 T02540194  RH  069%=      5-min Rain = 0
KLE1 160138Z 05005KT 25/19 A2996 RMK A01 T02540193  RH  069%=      5-min Rain = 0
KLE1 160139Z 05006KT 25/19 A2996 RMK A01 T02540193  RH  069%=      5-min Rain = 0
KLE1 160140Z 05006KT 25/19 A2996 RMK A01 T02540193  RH  069%=      5-min Rain = 0
KLE1 160141Z 05006KT 25/19 A2996 RMK A01 T02540193  RH  069%=      5-min Rain = 0
KLE1 160142Z 05006KT 25/19 A2996 RMK A01 T02540193  RH  069%=      5-min Rain = 0
KLE1 160143Z 05006KT 25/19 A2996 RMK A01 T02530194  RH  069%=      5-min Rain = 0
KLE1 160144Z 05006KT 25/19 A2996 RMK A01 T02530193  RH  069%=      5-min Rain = 0
KLE1 160145Z 04006KT 25/19 A2996 RMK A01 T02530193  RH  069%=      5-min Rain = 0
KLE1 160146Z 04006KT 25/19 A2996 RMK A01 T02530193  RH  069%=      5-min Rain = 0
KLE1 160147Z 03006KT 25/19 A2997 RMK A01 T02530194  RH  070%=      5-min Rain = 0
KLE1 160148Z 02006KT 25/19 A2997 RMK A01 T02530194  RH  070%=      5-min Rain = 0
KLE1 160149Z 02007KT 25/19 A2997 RMK A01 T02530194  RH  070%=      5-min Rain = 0
KLE1 160150Z 01006KT 25/20 A2997 RMK A01 T02530195  RH  070%=      5-min Rain = 0
KLE1 160151Z 01006KT 25/20 A2997 RMK A01 T02530195  RH  071%=      5-min Rain = 0
KLE1 160152Z 01007KT 25/20 A2997 RMK A01 T02520197  RH  071%=      5-min Rain = 0
KLE1 160153Z 01007KT 25/20 A2997 RMK A01 T02520198  RH  072%=      5-min Rain = 0
KLE1 160154Z 01007KT 25/20 A2997 RMK A01 T02520198  RH  072%=      5-min Rain = 0
KLE1 160155Z 01007KT 25/20 A2997 RMK A01 T02520198  RH  072%=      5-min Rain = 0
KLE1 160156Z 01007KT 25/20 A2997 RMK A01 T02520198  RH  072%=      5-min Rain = 0
KLE1 160157Z 01006KT 25/20 A2996 RMK A01 T02520197  RH  071%=      5-min Rain = 0
KLE1 160158Z 01006KT 25/20 A2996 RMK A01 T02520197  RH  071%=      5-min Rain = 0
KLE1 160159Z 01006KT 25/20 A2996 RMK A01 T02520196  RH  071%=      5-min Rain = 0
KLE1 160200Z 02006KT 25/20 A2996 RMK A01 T02520196  RH  071%=      5-min Rain = 0
KLE1 160201Z 02006KT 25/20 A2996 RMK A01 T02520196  RH  071%=      5-min Rain = 0
KLE1 160202Z 02007KT 25/20 A2996 RMK A01 T02520195  RH  071%=      5-min Rain = 0
KLE1 160203Z 02007KT 25/20 A2996 RMK A01 T02520195  RH  071%=      5-min Rain = 0
KLE1 160204Z 02007KT 25/20 A2996 RMK A01 T02510195  RH  071%=      5-min Rain = 0
KLE1 160205Z 02007KT 25/20 A2996 RMK A01 T02510195  RH  071%=      5-min Rain = 0
KLE1 160206Z 02008KT 25/20 A2996 RMK A01 T02500195  RH  071%=      5-min Rain = 0
KLE1 160207Z 01008KT 25/20 A2996 RMK A01 T02510195  RH  071%=      5-min Rain = 0
KLE1 160208Z 01008KT 25/20 A2996 RMK A01 T02510196  RH  072%=      5-min Rain = 0
KLE1 160209Z 01008KT 25/20 A2996 RMK A01 T02510197  RH  072%=      5-min Rain = 0
KLE1 160210Z 01008KT 25/20 A2996 RMK A01 T02500197  RH  072%=      5-min Rain = 0
KLE1 160211Z 01009KT 25/20 A2996 RMK A01 T02500196  RH  072%=      5-min Rain = 0
KLE1 160212Z 01008KT 25/20 A2996 RMK A01 T02490196  RH  072%=      5-min Rain = 0
KLE1 160213Z 01009KT 25/20 A2997 RMK A01 T02490196  RH  072%=      5-min Rain = 0
KLE1 160214Z 01009KT 25/20 A2997 RMK A01 T02490196  RH  072%=      5-min Rain = 0
KLE1 160215Z 01008KT 25/20 A2997 RMK A01 T02490196  RH  072%=      5-min Rain = 0
KLE1 160216Z 01008KT 25/20 A2997 RMK A01 T02490195  RH  072%=      5-min Rain = 0
KLE1 160217Z 01007KT 25/20 A2997 RMK A01 T02490195  RH  072%=      5-min Rain = 0
KLE1 160218Z 02007KT 25/20 A2997 RMK A01 T02480195  RH  072%=      5-min Rain = 0
KLE1 160219Z 01008KT 25/20 A2997 RMK A01 T02480195  RH  072%=      5-min Rain = 0
KLE1 160220Z 01007KT 25/20 A2997 RMK A01 T02480195  RH  072%=      5-min Rain = 0
KLE1 160221Z 01008KT 25/20 A2997 RMK A01 T02480195  RH  072%=      5-min Rain = 0
KLE1 160222Z 01008KT 25/20 A2997 RMK A01 T02480195  RH  073%=      5-min Rain = 0
KLE1 160223Z 01009KT 25/20 A2997 RMK A01 T02470195  RH  072%=      5-min Rain = 0
KLE1 160224Z 01009KT 25/20 A2997 RMK A01 T02480195  RH  072%=      5-min Rain = 0
KLE1 160225Z 00010KT 25/20 A2997 RMK A01 T02480195  RH  072%=      5-min Rain = 0
KLE1 160226Z 01010KT 25/20 A2997 RMK A01 T02480195  RH  072%=      5-min Rain = 0
KLE1 160227Z 01010KT 25/20 A2997 RMK A01 T02480195  RH  072%=      5-min Rain = 0
KLE1 160228Z 01010KT 25/20 A2997 RMK A01 T02480195  RH  072%=      5-min Rain = 0
KLE1 160229Z 01010KT 25/19 A2997 RMK A01 T02480194  RH  072%=      5-min Rain = 0
KLE1 160230Z 01009KT 25/19 A2997 RMK A01 T02480194  RH  072%=      5-min Rain = 0
KLE1 160231Z 01010KT 25/19 A2997 RMK A01 T02480194  RH  072%=      5-min Rain = 0
KLE1 160232Z 01011KT 25/20 A2997 RMK A01 T02480195  RH  072%=      5-min Rain = 0
KLE1 160233Z 01011KT 25/20 A2997 RMK A01 T02480196  RH  073%=      5-min Rain = 0
KLE1 160234Z 01013KT 25/20 A2997 RMK A01 T02470196  RH  073%=      5-min Rain = 0
KLE1 160235Z 01013KT 25/20 A2997 RMK A01 T02470196  RH  073%=      5-min Rain = 0
KLE1 160236Z 01011KT 25/20 A2997 RMK A01 T02460196  RH  074%=      5-min Rain = 0
KLE1 160237Z 02011KT 25/20 A2997 RMK A01 T02460196  RH  074%=      5-min Rain = 0
KLE1 160238Z 02012KT 25/20 A2997 RMK A01 T02460196  RH  074%=      5-min Rain = 0
KLE1 160239Z 02010KT 25/20 A2997 RMK A01 T02450195  RH  073%=      5-min Rain = 0
KLE1 160240Z 01010KT 25/20 A2997 RMK A01 T02460196  RH  074%=      5-min Rain = 0
KLE1 160241Z 01010KT 25/20 A2998 RMK A01 T02450196  RH  074%=      5-min Rain = 0
KLE1 160242Z 35010KT 25/20 A2998 RMK A01 T02450198  RH  075%=      5-min Rain = 0
KLE1 160243Z 31012KT 24/20 A2999 RMK A01 T02440199  RH  076%=      5-min Rain = 0
KLE1 160244Z 30019G26KT 24/19 A2999 RMK A01 T02430188  RH  072%=      5-min Rain = 0
KLE1 160245Z 32025G31KT 24/17 A2999 RMK A01 T02370167  RH  065%=      5-min Rain = 0
KLE1 160246Z 32028G35KT 23/17 A2999 RMK A01 T02320165  RH  066%=      5-min Rain = 0
KLE1 160247Z 32026KT 22/14 A30 RMK A01 T02240139  RH  058%=      5-min Rain = 0
KLE1 160248Z 32024KT 21/13 A30 RMK A01 T02140134  RH  060%=      5-min Rain = 0
KLE1 160249Z 32023G30KT 21/13 A30 RMK A01 T02080134  RH  063%=      5-min Rain = 0
KLE1 160250Z 32021KT 20/14 A30 RMK A01 T02030135  RH  065%=      5-min Rain = 0
KLE1 160251Z 31018KT 20/14 A30 RMK A01 T02000136  RH  067%=      5-min Rain = 0
KLE1 160252Z 30019G30KT 20/14 A30 RMK A01 T01970137  RH  068%=      5-min Rain = 0
KLE1 160253Z 31028KT 20/13 A2999 RMK A01 T01960133  RH  067%=      5-min Rain = 0
KLE1 160254Z 30022G29KT 20/13 A2999 RMK A01 T01950134  RH  068%=      5-min Rain = 0
KLE1 160255Z 30015KT 19/14 A2999 RMK A01 T01920142  RH  073%=      5-min Rain = 0
KLE1 160256Z 30020KT 19/14 A2999 RMK A01 T01890142  RH  074%=      5-min Rain = 0
KLE1 160257Z 30016G22KT 19/14 A2999 RMK A01 T01870143  RH  076%=      5-min Rain = 0
KLE1 160258Z 31013KT 19/15 A2999 RMK A01 T01850147  RH  079%=      5-min Rain = 0
KLE1 160259Z 29017G23KT 18/15 A2999 RMK A01 T01840148  RH  079%=      5-min Rain = 0
KLE1 160300Z 29021G26KT 18/15 A2999 RMK A01 T01840147  RH  079%=      5-min Rain = 0
KLE1 160301Z 28021G27KT 19/14 A2999 RMK A01 T01890143  RH  074%=      5-min Rain = 0
KLE1 160302Z 28018KT 19/14 A2999 RMK A01 T01930143  RH  073%=      5-min Rain = 0
KLE1 160303Z 30015KT 19/14 A2999 RMK A01 T01940144  RH  072%=      5-min Rain = 0
KLE1 160304Z 02006KT 19/15 A2999 RMK A01 T01940146  RH  074%=      5-min Rain = 0
KLE1 160305Z 09005KT 19/15 A2998 RMK A01 T01920148  RH  076%=      5-min Rain = 0.01
KLE1 160306Z 15009KT 19/15 A2997 RMK A01 T01890150  RH  078%=      5-min Rain = 0
KLE1 160307Z 14009KT 19/15 A2997 RMK A01 T01860149  RH  079%=      5-min Rain = 0
KLE1 160308Z 15011KT 19/15 A2996 RMK A01 T01850148  RH  079%=      5-min Rain = 0
KLE1 160309Z 16009KT 19/14 A2996 RMK A01 T01860144  RH  077%=      5-min Rain = 0
KLE1 160310Z 15014KT 19/15 A2994 RMK A01 T01890146  RH  076%=      5-min Rain = 0
KLE1 160311Z 14017KT 19/15 A2994 RMK A01 T01870151  RH  079%=      5-min Rain = 0
KLE1 160312Z 13017KT 19/15 A2992 RMK A01 T01850147  RH  079%=      5-min Rain = 0
KLE1 160313Z 14014KT 19/14 A2992 RMK A01 T01860144  RH  076%=      5-min Rain = 0
KLE1 160314Z 14012G20KT 19/13 A2991 RMK A01 T01880134  RH  071%=      5-min Rain = 0
KLE1 160315Z 14015KT 20/14 A2991 RMK A01 T01960136  RH  068%=      5-min Rain = 0
KLE1 160316Z 13013KT 20/15 A299 RMK A01 T01960145  RH  073%=      5-min Rain = 0
KLE1 160317Z 13010KT 19/15 A299 RMK A01 T01910146  RH  075%=      5-min Rain = 0
KLE1 160318Z 12012KT 19/15 A2989 RMK A01 T01900146  RH  076%=      5-min Rain = 0
KLE1 160319Z 12012KT 19/15 A2989 RMK A01 T01890146  RH  076%=      5-min Rain = 0
KLE1 160320Z 11011KT 19/15 A2989 RMK A01 T01890146  RH  076%=      5-min Rain = 0
KLE1 160321Z 12010KT 19/14 A2988 RMK A01 T01890144  RH  075%=      5-min Rain = 0
KLE1 160322Z 11012KT 19/15 A2988 RMK A01 T01890145  RH  075%=      5-min Rain = 0
KLE1 160323Z 10011KT 19/14 A2987 RMK A01 T01910143  RH  074%=      5-min Rain = 0
KLE1 160324Z 10011KT 19/14 A2987 RMK A01 T01910144  RH  074%=      5-min Rain = 0
KLE1 160325Z 11012KT 19/14 A2988 RMK A01 T01920142  RH  073%=      5-min Rain = 0
KLE1 160326Z 10016KT 19/14 A2988 RMK A01 T01940140  RH  071%=      5-min Rain = 0
KLE1 160327Z 10013KT 20/14 A2988 RMK A01 T01950140  RH  070%=      5-min Rain = 0
KLE1 160328Z 12012KT 20/14 A2989 RMK A01 T01960135  RH  068%=      5-min Rain = 0
KLE1 160329Z 11017G24KT 20/14 A2989 RMK A01 T01980138  RH  068%=      5-min Rain = 0
KLE1 160330Z 11021KT 20/14 A2989 RMK A01 T01980139  RH  068%=      5-min Rain = 0
KLE1 160331Z 12021KT 20/14 A2989 RMK A01 T01960144  RH  072%=      5-min Rain = 0
KLE1 160332Z 12021KT 19/15 A2989 RMK A01 T01930147  RH  075%=      5-min Rain = 0
KLE1 160333Z 12025KT 19/15 A299 RMK A01 T01900148  RH  076%=      5-min Rain = 0
KLE1 160334Z 11026KT 19/15 A299 RMK A01 T01880146  RH  077%=      5-min Rain = 0
KLE1 160335Z 11025G30KT 19/15 A299 RMK A01 T01860149  RH  079%=      5-min Rain = 0
KLE1 160336Z 12024KT 18/15 A299 RMK A01 T01830149  RH  081%=      5-min Rain = 0
KLE1 160337Z 12023KT 18/15 A2991 RMK A01 T01810151  RH  083%=      5-min Rain = 0
KLE1 160338Z 11027G34KT 18/15 A2992 RMK A01 T01800150  RH  083%=      5-min Rain = 0
KLE1 160339Z 12024G31KT 18/15 A2991 RMK A01 T01790151  RH  084%=      5-min Rain = 0
KLE1 160340Z 12025KT 18/15 A2989 RMK A01 T01780153  RH  086%=      5-min Rain = 0
KLE1 160341Z 12029KT 18/15 A2988 RMK A01 T01770152  RH  085%=      5-min Rain = 0
KLE1 160342Z 12027KT 18/15 A2989 RMK A01 T01770153  RH  086%=      5-min Rain = 0
KLE1 160343Z 12026KT 18/15 A2989 RMK A01 T01760153  RH  086%=      5-min Rain = 0
KLE1 160344Z 12024KT 18/15 A2988 RMK A01 T01760154  RH  087%=      5-min Rain = 0
KLE1 160345Z 12028KT 18/16 A2987 RMK A01 T01750155  RH  087%=      5-min Rain = 0
KLE1 160346Z 12029KT 18/15 A2987 RMK A01 T01760151  RH  086%=      5-min Rain = 0
KLE1 160347Z 12030KT 18/15 A2987 RMK A01 T01770150  RH  084%=      5-min Rain = 0
KLE1 160348Z 12030KT 18/15 A2986 RMK A01 T01770149  RH  083%=      5-min Rain = 0
KLE1 160349Z 12023G29KT 18/15 A2988 RMK A01 T01780150  RH  083%=      5-min Rain = 0
KLE1 160350Z 13023G28KT 18/15 A2989 RMK A01 T01780151  RH  084%=      5-min Rain = 0
KLE1 160351Z 13022KT 18/15 A2989 RMK A01 T01780150  RH  084%=      5-min Rain = 0
KLE1 160352Z 13020KT 18/15 A299 RMK A01 T01780152  RH  084%=      5-min Rain = 0
KLE1 160353Z 14020KT 18/15 A299 RMK A01 T01780152  RH  085%=      5-min Rain = 0
KLE1 160354Z 13017KT 18/15 A299 RMK A01 T01780153  RH  085%=      5-min Rain = 0
KLE1 160355Z 13019KT 18/15 A299 RMK A01 T01780153  RH  085%=      5-min Rain = 0
KLE1 160356Z 13021KT 18/15 A2989 RMK A01 T01770151  RH  085%=      5-min Rain = 0
KLE1 160357Z 13021KT 18/15 A2989 RMK A01 T01770152  RH  085%=      5-min Rain = 0
KLE1 160358Z 13021KT 18/15 A299 RMK A01 T01770153  RH  086%=      5-min Rain = 0
KLE1 160359Z 13019KT 18/15 A299 RMK A01 T01770153  RH  086%=      5-min Rain = 0
KLE1 160400Z 13017KT 18/15 A299 RMK A01 T01760153  RH  086%=      5-min Rain = 0
KLE1 160401Z 12015KT 18/15 A299 RMK A01 T01760152  RH  086%=      5-min Rain = 0
KLE1 160402Z 12013KT 18/15 A299 RMK A01 T01760153  RH  086%=      5-min Rain = 0
KLE1 160403Z 10011KT 18/15 A299 RMK A01 T01760152  RH  086%=      5-min Rain = 0
KLE1 160404Z 09011KT 18/15 A299 RMK A01 T01760152  RH  086%=      5-min Rain = 0
KLE1 160405Z 07011KT 18/15 A299 RMK A01 T01760154  RH  087%=      5-min Rain = 0
KLE1 160406Z 06012KT 18/16 A299 RMK A01 T01760155  RH  087%=      5-min Rain = 0
KLE1 160407Z 04012KT 18/16 A2991 RMK A01 T01760155  RH  087%=      5-min Rain = 0
KLE1 160408Z 03012KT 18/16 A2991 RMK A01 T01770155  RH  087%=      5-min Rain = 0
KLE1 160409Z 02010KT 18/16 A2992 RMK A01 T01770155  RH  087%=      5-min Rain = 0
KLE1 160410Z 02010KT 18/15 A2992 RMK A01 T01780154  RH  086%=      5-min Rain = 0
KLE1 160411Z 03010KT 18/15 A2992 RMK A01 T01780154  RH  086%=      5-min Rain = 0
KLE1 160412Z 03011KT 18/15 A2992 RMK A01 T01780153  RH  085%=      5-min Rain = 0
KLE1 160413Z 05012KT 18/15 A2992 RMK A01 T01780152  RH  085%=      5-min Rain = 0
KLE1 160414Z 07013KT 18/15 A2991 RMK A01 T01790150  RH  083%=      5-min Rain = 0
KLE1 160415Z 08016KT 18/15 A2991 RMK A01 T01800148  RH  082%=      5-min Rain = 0
KLE1 160416Z 09015KT 18/15 A299 RMK A01 T01810147  RH  080%=      5-min Rain = 0
KLE1 160417Z 10014KT 18/15 A2991 RMK A01 T01830146  RH  079%=      5-min Rain = 0
KLE1 160418Z 11010G15KT 19/15 A2991 RMK A01 T01850145  RH  077%=      5-min Rain = 0
KLE1 160419Z 09013G18KT 19/14 A2992 RMK A01 T01860143  RH  076%=      5-min Rain = 0
KLE1 160420Z 09014KT 19/14 A2992 RMK A01 T01870141  RH  074%=      5-min Rain = 0
KLE1 160421Z 08015KT 19/14 A2992 RMK A01 T01890144  RH  075%=      5-min Rain = 0
KLE1 160422Z 07014KT 19/14 A2992 RMK A01 T01890142  RH  074%=      5-min Rain = 0
KLE1 160423Z 05014KT 19/14 A2992 RMK A01 T01890143  RH  075%=      5-min Rain = 0
KLE1 160424Z 06013KT 19/14 A2992 RMK A01 T01870143  RH  076%=      5-min Rain = 0
KLE1 160425Z 06015KT 18/14 A2992 RMK A01 T01830143  RH  078%=      5-min Rain = 0
KLE1 160426Z 06014KT 18/14 A2992 RMK A01 T01800144  RH  079%=      5-min Rain = 0
KLE1 160427Z 06012KT 18/14 A2992 RMK A01 T01790144  RH  080%=      5-min Rain = 0
KLE1 160428Z 07011KT 18/15 A2991 RMK A01 T01790145  RH  081%=      5-min Rain = 0
KLE1 160429Z 07012KT 18/15 A2991 RMK A01 T01790145  RH  081%=      5-min Rain = 0
KLE1 160430Z 06012KT 18/15 A2991 RMK A01 T01800147  RH  081%=      5-min Rain = 0
KLE1 160431Z 06014KT 18/15 A2991 RMK A01 T01800147  RH  081%=      5-min Rain = 0
KLE1 160432Z 05015KT 18/15 A2991 RMK A01 T01800148  RH  081%=      5-min Rain = 0
KLE1 160433Z 05015KT 18/15 A2991 RMK A01 T01790149  RH  082%=      5-min Rain = 0
KLE1 160434Z 05018KT 18/15 A2991 RMK A01 T01780149  RH  083%=      5-min Rain = 0
KLE1 160435Z 06016KT 18/15 A299 RMK A01 T01770150  RH  084%=      5-min Rain = 0
KLE1 160436Z 06017KT 18/15 A299 RMK A01 T01770150  RH  084%=      5-min Rain = 0
KLE1 160437Z 06015KT 18/15 A299 RMK A01 T01770150  RH  084%=      5-min Rain = 0
KLE1 160438Z 06017KT 18/15 A299 RMK A01 T01770150  RH  084%=      5-min Rain = 0
KLE1 160439Z 05016KT 18/15 A2991 RMK A01 T01770149  RH  083%=      5-min Rain = 0
KLE1 160440Z 04017G22KT 18/15 A2991 RMK A01 T01780150  RH  084%=      5-min Rain = 0
KLE1 160441Z 04017KT 18/15 A2991 RMK A01 T01780150  RH  084%=      5-min Rain = 0
KLE1 160442Z 05018KT 18/15 A299 RMK A01 T01780149  RH  083%=      5-min Rain = 0
KLE1 160443Z 06017KT 18/15 A299 RMK A01 T01790150  RH  083%=      5-min Rain = 0
KLE1 160444Z 06016KT 18/15 A299 RMK A01 T01790150  RH  083%=      5-min Rain = 0
KLE1 160445Z 06018KT 18/15 A299 RMK A01 T01790150  RH  083%=      5-min Rain = 0
KLE1 160446Z 06018KT 18/15 A299 RMK A01 T01790149  RH  083%=      5-min Rain = 0
KLE1 160447Z 05018KT 18/15 A2991 RMK A01 T01800150  RH  083%=      5-min Rain = 0
KLE1 160448Z 05017KT 18/15 A2991 RMK A01 T01800150  RH  083%=      5-min Rain = 0
KLE1 160449Z 05016KT 18/15 A2991 RMK A01 T01800150  RH  082%=      5-min Rain = 0
KLE1 160450Z 05015KT 18/15 A2991 RMK A01 T01810150  RH  082%=      5-min Rain = 0
KLE1 160451Z 05017KT 18/15 A2991 RMK A01 T01810150  RH  082%=      5-min Rain = 0.01
KLE1 160452Z 06016KT 18/15 A2992 RMK A01 T01810150  RH  082%=      5-min Rain = 0
KLE1 160453Z 06016KT 18/15 A2992 RMK A01 T01810150  RH  082%=      5-min Rain = 0
KLE1 160454Z 05015KT 18/15 A2992 RMK A01 T01820150  RH  082%=      5-min Rain = 0
KLE1 160455Z 05013KT 18/15 A2992 RMK A01 T01820150  RH  081%=      5-min Rain = 0
KLE1 160456Z 05012KT 18/15 A2992 RMK A01 T01820150  RH  082%=      5-min Rain = 0
KLE1 160457Z 05013KT 18/15 A2992 RMK A01 T01820150  RH  082%=      5-min Rain = 0
KLE1 160458Z 06014KT 18/15 A2992 RMK A01 T01830150  RH  081%=      5-min Rain = 0
KLE1 160459Z 06014KT 18/15 A2993 RMK A01 T01830149  RH  081%=      5-min Rain = 0

Page generated in 0.0888 seconds.